<?xml version="1.0" encoding="UTF-8" standalone="no" ?>
<gpx xmlns="http://www.topografix.com/GPX/1/1" xmlns:xsi="http://www.w3.org/2001/XMLSchema-instance" xsi:schemaLocation="http://www.topografix.com/GPX/1/1 http://www.topografix.com/GPX/1/1/gpx.xsd" version="1.1" creator="VisuGPX - https://www.visugpx.com">
  <metadata>
    <name>marche Masevaux</name>
    <desc><![CDATA[Marche populaire Masevaux 2016]]></desc>
  </metadata>
  <trk>
    <name><![CDATA[marche pop Masevaux]]></name>
    <trkseg>
      <trkpt lat="47.77606" lon="6.99146">
        <ele>410</ele>
        <time>2016-10-22T11:01:59Z</time>
      </trkpt>
      <trkpt lat="47.77606" lon="6.99146">
        <ele>471</ele>
        <time>2016-10-22T11:02:22Z</time>
      </trkpt>
      <trkpt lat="47.77627" lon="6.99143">
        <ele>470</ele>
        <time>2016-10-22T11:02:31Z</time>
      </trkpt>
      <trkpt lat="47.77624" lon="6.9913">
        <ele>448</ele>
        <time>2016-10-22T11:02:33Z</time>
      </trkpt>
      <trkpt lat="47.77627" lon="6.99143">
        <ele>470</ele>
        <time>2016-10-22T11:02:39Z</time>
      </trkpt>
      <trkpt lat="47.77636" lon="6.99124">
        <ele>459</ele>
        <time>2016-10-22T11:02:47Z</time>
      </trkpt>
      <trkpt lat="47.77643" lon="6.99099">
        <ele>458</ele>
        <time>2016-10-22T11:03:03Z</time>
      </trkpt>
      <trkpt lat="47.77656" lon="6.99088">
        <ele>459</ele>
        <time>2016-10-22T11:03:18Z</time>
      </trkpt>
      <trkpt lat="47.77656" lon="6.99088">
        <ele>459</ele>
        <time>2016-10-22T11:03:27Z</time>
      </trkpt>
      <trkpt lat="47.77656" lon="6.99088">
        <ele>459</ele>
        <time>2016-10-22T11:03:28Z</time>
      </trkpt>
      <trkpt lat="47.77648" lon="6.991">
        <ele>462</ele>
        <time>2016-10-22T11:04:46Z</time>
      </trkpt>
      <trkpt lat="47.77637" lon="6.9913">
        <ele>461</ele>
        <time>2016-10-22T11:05:10Z</time>
      </trkpt>
      <trkpt lat="47.77639" lon="6.99147">
        <ele>460</ele>
        <time>2016-10-22T11:05:16Z</time>
      </trkpt>
      <trkpt lat="47.77649" lon="6.99159">
        <ele>463</ele>
        <time>2016-10-22T11:05:26Z</time>
      </trkpt>
      <trkpt lat="47.77649" lon="6.99159">
        <ele>463</ele>
        <time>2016-10-22T11:05:33Z</time>
      </trkpt>
      <trkpt lat="47.77661" lon="6.99169">
        <ele>462</ele>
        <time>2016-10-22T11:05:40Z</time>
      </trkpt>
      <trkpt lat="47.77675" lon="6.99184">
        <ele>461</ele>
        <time>2016-10-22T11:05:56Z</time>
      </trkpt>
      <trkpt lat="47.77676" lon="6.99206">
        <ele>458</ele>
        <time>2016-10-22T11:06:09Z</time>
      </trkpt>
      <trkpt lat="47.77675" lon="6.99227">
        <ele>457</ele>
        <time>2016-10-22T11:06:22Z</time>
      </trkpt>
      <trkpt lat="47.77665" lon="6.99246">
        <ele>457</ele>
        <time>2016-10-22T11:06:34Z</time>
      </trkpt>
      <trkpt lat="47.77654" lon="6.99273">
        <ele>457</ele>
        <time>2016-10-22T11:06:49Z</time>
      </trkpt>
      <trkpt lat="47.77648" lon="6.99284">
        <ele>459</ele>
        <time>2016-10-22T11:06:58Z</time>
      </trkpt>
      <trkpt lat="47.77639" lon="6.99311">
        <ele>463</ele>
        <time>2016-10-22T11:07:16Z</time>
      </trkpt>
      <trkpt lat="47.77633" lon="6.99344">
        <ele>458</ele>
        <time>2016-10-22T11:07:33Z</time>
      </trkpt>
      <trkpt lat="47.7763" lon="6.99358">
        <ele>463</ele>
        <time>2016-10-22T11:07:43Z</time>
      </trkpt>
      <trkpt lat="47.77621" lon="6.99392">
        <ele>465</ele>
        <time>2016-10-22T11:08:00Z</time>
      </trkpt>
      <trkpt lat="47.77607" lon="6.99409">
        <ele>469</ele>
        <time>2016-10-22T11:08:12Z</time>
      </trkpt>
      <trkpt lat="47.77598" lon="6.9942">
        <ele>475</ele>
        <time>2016-10-22T11:08:22Z</time>
      </trkpt>
      <trkpt lat="47.77588" lon="6.99412">
        <ele>468</ele>
        <time>2016-10-22T11:08:30Z</time>
      </trkpt>
      <trkpt lat="47.77584" lon="6.99408">
        <ele>465</ele>
        <time>2016-10-22T11:08:33Z</time>
      </trkpt>
      <trkpt lat="47.77576" lon="6.99403">
        <ele>462</ele>
        <time>2016-10-22T11:08:41Z</time>
      </trkpt>
      <trkpt lat="47.77566" lon="6.99397">
        <ele>461</ele>
        <time>2016-10-22T11:08:49Z</time>
      </trkpt>
      <trkpt lat="47.77554" lon="6.99394">
        <ele>460</ele>
        <time>2016-10-22T11:08:59Z</time>
      </trkpt>
      <trkpt lat="47.77534" lon="6.9938">
        <ele>465</ele>
        <time>2016-10-22T11:09:15Z</time>
      </trkpt>
      <trkpt lat="47.77526" lon="6.99372">
        <ele>465</ele>
        <time>2016-10-22T11:09:23Z</time>
      </trkpt>
      <trkpt lat="47.77517" lon="6.99358">
        <ele>463</ele>
        <time>2016-10-22T11:09:37Z</time>
      </trkpt>
      <trkpt lat="47.77505" lon="6.9935">
        <ele>463</ele>
        <time>2016-10-22T11:09:47Z</time>
      </trkpt>
      <trkpt lat="47.77493" lon="6.99337">
        <ele>459</ele>
        <time>2016-10-22T11:09:58Z</time>
      </trkpt>
      <trkpt lat="47.77475" lon="6.99326">
        <ele>458</ele>
        <time>2016-10-22T11:10:14Z</time>
      </trkpt>
      <trkpt lat="47.77457" lon="6.99315">
        <ele>461</ele>
        <time>2016-10-22T11:10:29Z</time>
      </trkpt>
      <trkpt lat="47.77439" lon="6.99303">
        <ele>459</ele>
        <time>2016-10-22T11:10:46Z</time>
      </trkpt>
      <trkpt lat="47.7742" lon="6.99292">
        <ele>459</ele>
        <time>2016-10-22T11:11:03Z</time>
      </trkpt>
      <trkpt lat="47.77407" lon="6.99285">
        <ele>453</ele>
        <time>2016-10-22T11:11:15Z</time>
      </trkpt>
      <trkpt lat="47.77395" lon="6.99282">
        <ele>456</ele>
        <time>2016-10-22T11:11:25Z</time>
      </trkpt>
      <trkpt lat="47.77385" lon="6.99275">
        <ele>455</ele>
        <time>2016-10-22T11:11:34Z</time>
      </trkpt>
      <trkpt lat="47.77369" lon="6.99257">
        <ele>455</ele>
        <time>2016-10-22T11:11:51Z</time>
      </trkpt>
      <trkpt lat="47.77356" lon="6.99249">
        <ele>458</ele>
        <time>2016-10-22T11:12:05Z</time>
      </trkpt>
      <trkpt lat="47.77354" lon="6.99247">
        <ele>459</ele>
        <time>2016-10-22T11:12:06Z</time>
      </trkpt>
      <trkpt lat="47.77347" lon="6.9924">
        <ele>457</ele>
        <time>2016-10-22T11:12:15Z</time>
      </trkpt>
      <trkpt lat="47.77325" lon="6.99241">
        <ele>449</ele>
        <time>2016-10-22T11:12:28Z</time>
      </trkpt>
      <trkpt lat="47.77318" lon="6.99237">
        <ele>446</ele>
        <time>2016-10-22T11:12:38Z</time>
      </trkpt>
      <trkpt lat="47.77298" lon="6.99234">
        <ele>459</ele>
        <time>2016-10-22T11:12:58Z</time>
      </trkpt>
      <trkpt lat="47.77282" lon="6.99257">
        <ele>465</ele>
        <time>2016-10-22T11:13:16Z</time>
      </trkpt>
      <trkpt lat="47.77275" lon="6.99278">
        <ele>466</ele>
        <time>2016-10-22T11:13:30Z</time>
      </trkpt>
      <trkpt lat="47.77263" lon="6.99297">
        <ele>467</ele>
        <time>2016-10-22T11:13:43Z</time>
      </trkpt>
      <trkpt lat="47.77258" lon="6.99314">
        <ele>470</ele>
        <time>2016-10-22T11:13:54Z</time>
      </trkpt>
      <trkpt lat="47.77253" lon="6.99345">
        <ele>471</ele>
        <time>2016-10-22T11:14:11Z</time>
      </trkpt>
      <trkpt lat="47.7725" lon="6.99363">
        <ele>477</ele>
        <time>2016-10-22T11:14:23Z</time>
      </trkpt>
      <trkpt lat="47.77228" lon="6.99375">
        <ele>467</ele>
        <time>2016-10-22T11:14:40Z</time>
      </trkpt>
      <trkpt lat="47.77219" lon="6.99383">
        <ele>467</ele>
        <time>2016-10-22T11:14:49Z</time>
      </trkpt>
      <trkpt lat="47.77209" lon="6.99385">
        <ele>467</ele>
        <time>2016-10-22T11:14:57Z</time>
      </trkpt>
      <trkpt lat="47.77196" lon="6.99387">
        <ele>464</ele>
        <time>2016-10-22T11:15:11Z</time>
      </trkpt>
      <trkpt lat="47.7718" lon="6.99387">
        <ele>465</ele>
        <time>2016-10-22T11:15:23Z</time>
      </trkpt>
      <trkpt lat="47.77163" lon="6.99385">
        <ele>464</ele>
        <time>2016-10-22T11:15:36Z</time>
      </trkpt>
      <trkpt lat="47.77148" lon="6.99384">
        <ele>464</ele>
        <time>2016-10-22T11:15:50Z</time>
      </trkpt>
      <trkpt lat="47.77125" lon="6.99384">
        <ele>465</ele>
        <time>2016-10-22T11:16:09Z</time>
      </trkpt>
      <trkpt lat="47.77109" lon="6.99375">
        <ele>467</ele>
        <time>2016-10-22T11:16:21Z</time>
      </trkpt>
      <trkpt lat="47.77094" lon="6.9935">
        <ele>464</ele>
        <time>2016-10-22T11:16:39Z</time>
      </trkpt>
      <trkpt lat="47.77089" lon="6.99337">
        <ele>466</ele>
        <time>2016-10-22T11:16:47Z</time>
      </trkpt>
      <trkpt lat="47.7708" lon="6.9932">
        <ele>467</ele>
        <time>2016-10-22T11:16:59Z</time>
      </trkpt>
      <trkpt lat="47.77069" lon="6.9929">
        <ele>471</ele>
        <time>2016-10-22T11:17:16Z</time>
      </trkpt>
      <trkpt lat="47.77061" lon="6.9927">
        <ele>472</ele>
        <time>2016-10-22T11:17:28Z</time>
      </trkpt>
      <trkpt lat="47.77054" lon="6.99248">
        <ele>470</ele>
        <time>2016-10-22T11:17:42Z</time>
      </trkpt>
      <trkpt lat="47.77044" lon="6.99226">
        <ele>469</ele>
        <time>2016-10-22T11:17:57Z</time>
      </trkpt>
      <trkpt lat="47.77025" lon="6.99211">
        <ele>472</ele>
        <time>2016-10-22T11:18:15Z</time>
      </trkpt>
      <trkpt lat="47.77001" lon="6.99217">
        <ele>472</ele>
        <time>2016-10-22T11:18:34Z</time>
      </trkpt>
      <trkpt lat="47.7698" lon="6.9923">
        <ele>472</ele>
        <time>2016-10-22T11:18:51Z</time>
      </trkpt>
      <trkpt lat="47.76969" lon="6.9924">
        <ele>475</ele>
        <time>2016-10-22T11:19:02Z</time>
      </trkpt>
      <trkpt lat="47.76958" lon="6.99263">
        <ele>483</ele>
        <time>2016-10-22T11:19:17Z</time>
      </trkpt>
      <trkpt lat="47.76951" lon="6.99281">
        <ele>484</ele>
        <time>2016-10-22T11:19:29Z</time>
      </trkpt>
      <trkpt lat="47.76945" lon="6.99301">
        <ele>484</ele>
        <time>2016-10-22T11:19:42Z</time>
      </trkpt>
      <trkpt lat="47.76939" lon="6.99319">
        <ele>483</ele>
        <time>2016-10-22T11:19:58Z</time>
      </trkpt>
      <trkpt lat="47.76933" lon="6.99338">
        <ele>485</ele>
        <time>2016-10-22T11:20:08Z</time>
      </trkpt>
      <trkpt lat="47.76926" lon="6.99358">
        <ele>486</ele>
        <time>2016-10-22T11:20:20Z</time>
      </trkpt>
      <trkpt lat="47.76921" lon="6.99381">
        <ele>488</ele>
        <time>2016-10-22T11:20:34Z</time>
      </trkpt>
      <trkpt lat="47.76916" lon="6.99397">
        <ele>488</ele>
        <time>2016-10-22T11:20:45Z</time>
      </trkpt>
      <trkpt lat="47.76911" lon="6.99413">
        <ele>490</ele>
        <time>2016-10-22T11:20:56Z</time>
      </trkpt>
      <trkpt lat="47.76904" lon="6.99434">
        <ele>490</ele>
        <time>2016-10-22T11:21:09Z</time>
      </trkpt>
      <trkpt lat="47.76899" lon="6.99454">
        <ele>493</ele>
        <time>2016-10-22T11:21:20Z</time>
      </trkpt>
      <trkpt lat="47.76894" lon="6.99463">
        <ele>491</ele>
        <time>2016-10-22T11:21:28Z</time>
      </trkpt>
      <trkpt lat="47.76891" lon="6.99467">
        <ele>490</ele>
        <time>2016-10-22T11:21:41Z</time>
      </trkpt>
      <trkpt lat="47.76881" lon="6.99482">
        <ele>493</ele>
        <time>2016-10-22T11:21:49Z</time>
      </trkpt>
      <trkpt lat="47.76844" lon="6.99497">
        <ele>494</ele>
        <time>2016-10-22T11:22:27Z</time>
      </trkpt>
      <trkpt lat="47.76829" lon="6.99498">
        <ele>485</ele>
        <time>2016-10-22T11:22:38Z</time>
      </trkpt>
      <trkpt lat="47.76818" lon="6.99501">
        <ele>485</ele>
        <time>2016-10-22T11:22:43Z</time>
      </trkpt>
      <trkpt lat="47.76797" lon="6.9951">
        <ele>488</ele>
        <time>2016-10-22T11:23:01Z</time>
      </trkpt>
      <trkpt lat="47.76774" lon="6.99517">
        <ele>496</ele>
        <time>2016-10-22T11:23:22Z</time>
      </trkpt>
      <trkpt lat="47.76747" lon="6.99524">
        <ele>494</ele>
        <time>2016-10-22T11:23:40Z</time>
      </trkpt>
      <trkpt lat="47.76725" lon="6.99532">
        <ele>498</ele>
        <time>2016-10-22T11:23:56Z</time>
      </trkpt>
      <trkpt lat="47.76712" lon="6.99537">
        <ele>497</ele>
        <time>2016-10-22T11:24:09Z</time>
      </trkpt>
      <trkpt lat="47.76701" lon="6.9954">
        <ele>496</ele>
        <time>2016-10-22T11:24:16Z</time>
      </trkpt>
      <trkpt lat="47.76681" lon="6.99532">
        <ele>496</ele>
        <time>2016-10-22T11:24:33Z</time>
      </trkpt>
      <trkpt lat="47.76673" lon="6.99515">
        <ele>496</ele>
        <time>2016-10-22T11:24:47Z</time>
      </trkpt>
      <trkpt lat="47.76662" lon="6.99491">
        <ele>492</ele>
        <time>2016-10-22T11:25:05Z</time>
      </trkpt>
      <trkpt lat="47.76653" lon="6.99465">
        <ele>491</ele>
        <time>2016-10-22T11:25:21Z</time>
      </trkpt>
      <trkpt lat="47.76645" lon="6.99442">
        <ele>492</ele>
        <time>2016-10-22T11:25:35Z</time>
      </trkpt>
      <trkpt lat="47.76637" lon="6.9942">
        <ele>491</ele>
        <time>2016-10-22T11:25:47Z</time>
      </trkpt>
      <trkpt lat="47.76627" lon="6.99393">
        <ele>490</ele>
        <time>2016-10-22T11:26:03Z</time>
      </trkpt>
      <trkpt lat="47.76618" lon="6.99371">
        <ele>496</ele>
        <time>2016-10-22T11:26:18Z</time>
      </trkpt>
      <trkpt lat="47.76605" lon="6.9935">
        <ele>497</ele>
        <time>2016-10-22T11:26:31Z</time>
      </trkpt>
      <trkpt lat="47.76593" lon="6.99336">
        <ele>495</ele>
        <time>2016-10-22T11:26:44Z</time>
      </trkpt>
      <trkpt lat="47.76587" lon="6.99317">
        <ele>490</ele>
        <time>2016-10-22T11:26:57Z</time>
      </trkpt>
      <trkpt lat="47.76584" lon="6.99298">
        <ele>494</ele>
        <time>2016-10-22T11:27:11Z</time>
      </trkpt>
      <trkpt lat="47.76575" lon="6.99283">
        <ele>498</ele>
        <time>2016-10-22T11:27:20Z</time>
      </trkpt>
      <trkpt lat="47.76561" lon="6.99264">
        <ele>504</ele>
        <time>2016-10-22T11:27:34Z</time>
      </trkpt>
      <trkpt lat="47.76558" lon="6.99262">
        <ele>505</ele>
        <time>2016-10-22T11:27:36Z</time>
      </trkpt>
      <trkpt lat="47.76552" lon="6.99254">
        <ele>503</ele>
        <time>2016-10-22T11:27:47Z</time>
      </trkpt>
      <trkpt lat="47.76534" lon="6.99245">
        <ele>504</ele>
        <time>2016-10-22T11:28:04Z</time>
      </trkpt>
      <trkpt lat="47.76515" lon="6.99242">
        <ele>506</ele>
        <time>2016-10-22T11:28:22Z</time>
      </trkpt>
      <trkpt lat="47.76497" lon="6.99241">
        <ele>508</ele>
        <time>2016-10-22T11:28:38Z</time>
      </trkpt>
      <trkpt lat="47.76481" lon="6.99248">
        <ele>514</ele>
        <time>2016-10-22T11:28:52Z</time>
      </trkpt>
      <trkpt lat="47.76469" lon="6.99255">
        <ele>515</ele>
        <time>2016-10-22T11:29:03Z</time>
      </trkpt>
      <trkpt lat="47.76452" lon="6.99269">
        <ele>513</ele>
        <time>2016-10-22T11:29:21Z</time>
      </trkpt>
      <trkpt lat="47.76431" lon="6.9928">
        <ele>514</ele>
        <time>2016-10-22T11:29:41Z</time>
      </trkpt>
      <trkpt lat="47.76411" lon="6.99286">
        <ele>517</ele>
        <time>2016-10-22T11:29:58Z</time>
      </trkpt>
      <trkpt lat="47.76395" lon="6.99281">
        <ele>517</ele>
        <time>2016-10-22T11:30:12Z</time>
      </trkpt>
      <trkpt lat="47.76388" lon="6.99279">
        <ele>517</ele>
        <time>2016-10-22T11:30:20Z</time>
      </trkpt>
      <trkpt lat="47.76371" lon="6.99262">
        <ele>515</ele>
        <time>2016-10-22T11:30:36Z</time>
      </trkpt>
      <trkpt lat="47.76356" lon="6.99245">
        <ele>515</ele>
        <time>2016-10-22T11:30:52Z</time>
      </trkpt>
      <trkpt lat="47.76345" lon="6.99226">
        <ele>515</ele>
        <time>2016-10-22T11:31:05Z</time>
      </trkpt>
      <trkpt lat="47.76332" lon="6.99207">
        <ele>516</ele>
        <time>2016-10-22T11:31:20Z</time>
      </trkpt>
      <trkpt lat="47.76319" lon="6.99186">
        <ele>515</ele>
        <time>2016-10-22T11:31:35Z</time>
      </trkpt>
      <trkpt lat="47.76311" lon="6.99171">
        <ele>517</ele>
        <time>2016-10-22T11:31:48Z</time>
      </trkpt>
      <trkpt lat="47.76294" lon="6.99153">
        <ele>517</ele>
        <time>2016-10-22T11:32:07Z</time>
      </trkpt>
      <trkpt lat="47.76282" lon="6.99143">
        <ele>519</ele>
        <time>2016-10-22T11:32:19Z</time>
      </trkpt>
      <trkpt lat="47.76265" lon="6.99133">
        <ele>520</ele>
        <time>2016-10-22T11:32:36Z</time>
      </trkpt>
      <trkpt lat="47.76258" lon="6.99136">
        <ele>518</ele>
        <time>2016-10-22T11:32:39Z</time>
      </trkpt>
      <trkpt lat="47.76253" lon="6.99134">
        <ele>520</ele>
        <time>2016-10-22T11:32:47Z</time>
      </trkpt>
      <trkpt lat="47.76232" lon="6.99135">
        <ele>524</ele>
        <time>2016-10-22T11:33:10Z</time>
      </trkpt>
      <trkpt lat="47.76221" lon="6.99147">
        <ele>526</ele>
        <time>2016-10-22T11:33:22Z</time>
      </trkpt>
      <trkpt lat="47.76206" lon="6.99152">
        <ele>528</ele>
        <time>2016-10-22T11:33:39Z</time>
      </trkpt>
      <trkpt lat="47.76206" lon="6.99152">
        <ele>528</ele>
        <time>2016-10-22T11:33:44Z</time>
      </trkpt>
      <trkpt lat="47.76196" lon="6.99151">
        <ele>529</ele>
        <time>2016-10-22T11:33:50Z</time>
      </trkpt>
      <trkpt lat="47.76187" lon="6.99142">
        <ele>528</ele>
        <time>2016-10-22T11:34:01Z</time>
      </trkpt>
      <trkpt lat="47.76185" lon="6.99143">
        <ele>532</ele>
        <time>2016-10-22T11:34:10Z</time>
      </trkpt>
      <trkpt lat="47.76168" lon="6.99165">
        <ele>535</ele>
        <time>2016-10-22T11:34:51Z</time>
      </trkpt>
      <trkpt lat="47.76149" lon="6.99169">
        <ele>531</ele>
        <time>2016-10-22T11:35:10Z</time>
      </trkpt>
      <trkpt lat="47.7613" lon="6.99167">
        <ele>526</ele>
        <time>2016-10-22T11:35:28Z</time>
      </trkpt>
      <trkpt lat="47.76115" lon="6.99164">
        <ele>522</ele>
        <time>2016-10-22T11:35:43Z</time>
      </trkpt>
      <trkpt lat="47.76088" lon="6.99154">
        <ele>522</ele>
        <time>2016-10-22T11:36:22Z</time>
      </trkpt>
      <trkpt lat="47.7608" lon="6.99158">
        <ele>524</ele>
        <time>2016-10-22T11:36:33Z</time>
      </trkpt>
      <trkpt lat="47.76081" lon="6.99155">
        <ele>522</ele>
        <time>2016-10-22T11:36:42Z</time>
      </trkpt>
      <trkpt lat="47.76067" lon="6.99176">
        <ele>520</ele>
        <time>2016-10-22T11:37:03Z</time>
      </trkpt>
      <trkpt lat="47.76056" lon="6.99193">
        <ele>527</ele>
        <time>2016-10-22T11:37:15Z</time>
      </trkpt>
      <trkpt lat="47.76048" lon="6.99205">
        <ele>529</ele>
        <time>2016-10-22T11:37:30Z</time>
      </trkpt>
      <trkpt lat="47.76038" lon="6.99223">
        <ele>531</ele>
        <time>2016-10-22T11:37:48Z</time>
      </trkpt>
      <trkpt lat="47.76023" lon="6.99223">
        <ele>530</ele>
        <time>2016-10-22T11:38:04Z</time>
      </trkpt>
      <trkpt lat="47.76007" lon="6.99229">
        <ele>535</ele>
        <time>2016-10-22T11:38:19Z</time>
      </trkpt>
      <trkpt lat="47.76003" lon="6.99235">
        <ele>535</ele>
        <time>2016-10-22T11:38:25Z</time>
      </trkpt>
      <trkpt lat="47.76001" lon="6.9924">
        <ele>537</ele>
        <time>2016-10-22T11:38:33Z</time>
      </trkpt>
      <trkpt lat="47.75973" lon="6.99237">
        <ele>530</ele>
        <time>2016-10-22T11:39:37Z</time>
      </trkpt>
      <trkpt lat="47.75959" lon="6.99235">
        <ele>530</ele>
        <time>2016-10-22T11:39:51Z</time>
      </trkpt>
      <trkpt lat="47.7595" lon="6.99226">
        <ele>529</ele>
        <time>2016-10-22T11:40:02Z</time>
      </trkpt>
      <trkpt lat="47.75936" lon="6.99213">
        <ele>532</ele>
        <time>2016-10-22T11:40:18Z</time>
      </trkpt>
      <trkpt lat="47.75932" lon="6.9921">
        <ele>535</ele>
        <time>2016-10-22T11:40:26Z</time>
      </trkpt>
      <trkpt lat="47.75913" lon="6.99199">
        <ele>533</ele>
        <time>2016-10-22T11:40:45Z</time>
      </trkpt>
      <trkpt lat="47.75904" lon="6.99187">
        <ele>532</ele>
        <time>2016-10-22T11:40:55Z</time>
      </trkpt>
      <trkpt lat="47.75896" lon="6.9918">
        <ele>530</ele>
        <time>2016-10-22T11:41:03Z</time>
      </trkpt>
      <trkpt lat="47.75884" lon="6.99169">
        <ele>524</ele>
        <time>2016-10-22T11:41:19Z</time>
      </trkpt>
      <trkpt lat="47.75868" lon="6.99167">
        <ele>527</ele>
        <time>2016-10-22T11:41:30Z</time>
      </trkpt>
      <trkpt lat="47.75858" lon="6.99164">
        <ele>528</ele>
        <time>2016-10-22T11:41:41Z</time>
      </trkpt>
      <trkpt lat="47.75812" lon="6.99164">
        <ele>508</ele>
        <time>2016-10-22T11:42:24Z</time>
      </trkpt>
      <trkpt lat="47.75788" lon="6.99177">
        <ele>525</ele>
        <time>2016-10-22T11:42:41Z</time>
      </trkpt>
      <trkpt lat="47.75788" lon="6.99177">
        <ele>525</ele>
        <time>2016-10-22T11:42:46Z</time>
      </trkpt>
      <trkpt lat="47.75777" lon="6.99178">
        <ele>528</ele>
        <time>2016-10-22T11:42:51Z</time>
      </trkpt>
      <trkpt lat="47.75762" lon="6.99176">
        <ele>524</ele>
        <time>2016-10-22T11:43:05Z</time>
      </trkpt>
      <trkpt lat="47.75745" lon="6.9917">
        <ele>522</ele>
        <time>2016-10-22T11:43:18Z</time>
      </trkpt>
      <trkpt lat="47.75732" lon="6.99166">
        <ele>529</ele>
        <time>2016-10-22T11:43:28Z</time>
      </trkpt>
      <trkpt lat="47.75719" lon="6.99151">
        <ele>527</ele>
        <time>2016-10-22T11:43:41Z</time>
      </trkpt>
      <trkpt lat="47.75719" lon="6.99151">
        <ele>527</ele>
        <time>2016-10-22T11:43:48Z</time>
      </trkpt>
      <trkpt lat="47.75719" lon="6.99151">
        <ele>527</ele>
        <time>2016-10-22T11:43:49Z</time>
      </trkpt>
      <trkpt lat="47.75709" lon="6.99134">
        <ele>525</ele>
        <time>2016-10-22T11:44:04Z</time>
      </trkpt>
      <trkpt lat="47.75695" lon="6.99114">
        <ele>519</ele>
        <time>2016-10-22T11:44:15Z</time>
      </trkpt>
      <trkpt lat="47.75684" lon="6.99102">
        <ele>517</ele>
        <time>2016-10-22T11:44:26Z</time>
      </trkpt>
      <trkpt lat="47.75681" lon="6.99103">
        <ele>517</ele>
        <time>2016-10-22T11:44:35Z</time>
      </trkpt>
      <trkpt lat="47.75687" lon="6.99129">
        <ele>519</ele>
        <time>2016-10-22T11:45:10Z</time>
      </trkpt>
      <trkpt lat="47.75686" lon="6.99166">
        <ele>522</ele>
        <time>2016-10-22T11:45:26Z</time>
      </trkpt>
      <trkpt lat="47.7569" lon="6.99184">
        <ele>528</ele>
        <time>2016-10-22T11:45:39Z</time>
      </trkpt>
      <trkpt lat="47.75697" lon="6.99214">
        <ele>527</ele>
        <time>2016-10-22T11:46:00Z</time>
      </trkpt>
      <trkpt lat="47.75706" lon="6.99233">
        <ele>529</ele>
        <time>2016-10-22T11:46:14Z</time>
      </trkpt>
      <trkpt lat="47.75695" lon="6.99248">
        <ele>517</ele>
        <time>2016-10-22T11:46:23Z</time>
      </trkpt>
      <trkpt lat="47.75682" lon="6.99255">
        <ele>523</ele>
        <time>2016-10-22T11:46:38Z</time>
      </trkpt>
      <trkpt lat="47.75664" lon="6.99239">
        <ele>518</ele>
        <time>2016-10-22T11:46:52Z</time>
      </trkpt>
      <trkpt lat="47.75655" lon="6.99221">
        <ele>515</ele>
        <time>2016-10-22T11:47:04Z</time>
      </trkpt>
      <trkpt lat="47.75641" lon="6.992">
        <ele>513</ele>
        <time>2016-10-22T11:47:20Z</time>
      </trkpt>
      <trkpt lat="47.75631" lon="6.99174">
        <ele>518</ele>
        <time>2016-10-22T11:47:36Z</time>
      </trkpt>
      <trkpt lat="47.75631" lon="6.99174">
        <ele>518</ele>
        <time>2016-10-22T11:47:42Z</time>
      </trkpt>
      <trkpt lat="47.75631" lon="6.99174">
        <ele>518</ele>
        <time>2016-10-22T11:47:43Z</time>
      </trkpt>
      <trkpt lat="47.75641" lon="6.99202">
        <ele>523</ele>
        <time>2016-10-22T11:48:22Z</time>
      </trkpt>
      <trkpt lat="47.75642" lon="6.99216">
        <ele>525</ele>
        <time>2016-10-22T11:48:32Z</time>
      </trkpt>
      <trkpt lat="47.75642" lon="6.99216">
        <ele>525</ele>
        <time>2016-10-22T11:48:39Z</time>
      </trkpt>
      <trkpt lat="47.75642" lon="6.99216">
        <ele>525</ele>
        <time>2016-10-22T11:48:40Z</time>
      </trkpt>
      <trkpt lat="47.75617" lon="6.99247">
        <ele>525</ele>
        <time>2016-10-22T11:49:16Z</time>
      </trkpt>
      <trkpt lat="47.75617" lon="6.99247">
        <ele>525</ele>
        <time>2016-10-22T11:49:22Z</time>
      </trkpt>
      <trkpt lat="47.75622" lon="6.99265">
        <ele>525</ele>
        <time>2016-10-22T11:49:25Z</time>
      </trkpt>
      <trkpt lat="47.75622" lon="6.99265">
        <ele>525</ele>
        <time>2016-10-22T11:49:31Z</time>
      </trkpt>
      <trkpt lat="47.75622" lon="6.99265">
        <ele>525</ele>
        <time>2016-10-22T11:49:32Z</time>
      </trkpt>
      <trkpt lat="47.75641" lon="6.993">
        <ele>518</ele>
        <time>2016-10-22T11:50:20Z</time>
      </trkpt>
      <trkpt lat="47.75647" lon="6.99314">
        <ele>517</ele>
        <time>2016-10-22T11:50:27Z</time>
      </trkpt>
      <trkpt lat="47.75647" lon="6.99319">
        <ele>520</ele>
        <time>2016-10-22T11:50:35Z</time>
      </trkpt>
      <trkpt lat="47.75657" lon="6.99338">
        <ele>517</ele>
        <time>2016-10-22T11:50:54Z</time>
      </trkpt>
      <trkpt lat="47.75649" lon="6.99354">
        <ele>514</ele>
        <time>2016-10-22T11:51:03Z</time>
      </trkpt>
      <trkpt lat="47.75649" lon="6.99388">
        <ele>515</ele>
        <time>2016-10-22T11:51:21Z</time>
      </trkpt>
      <trkpt lat="47.75655" lon="6.99416">
        <ele>519</ele>
        <time>2016-10-22T11:51:43Z</time>
      </trkpt>
      <trkpt lat="47.75656" lon="6.99431">
        <ele>518</ele>
        <time>2016-10-22T11:51:51Z</time>
      </trkpt>
      <trkpt lat="47.7566" lon="6.99434">
        <ele>522</ele>
        <time>2016-10-22T11:51:59Z</time>
      </trkpt>
      <trkpt lat="47.75675" lon="6.99444">
        <ele>525</ele>
        <time>2016-10-22T11:52:18Z</time>
      </trkpt>
      <trkpt lat="47.75675" lon="6.99444">
        <ele>525</ele>
        <time>2016-10-22T11:52:26Z</time>
      </trkpt>
      <trkpt lat="47.75675" lon="6.99444">
        <ele>525</ele>
        <time>2016-10-22T11:52:27Z</time>
      </trkpt>
      <trkpt lat="47.75678" lon="6.99465">
        <ele>519</ele>
        <time>2016-10-22T11:52:36Z</time>
      </trkpt>
      <trkpt lat="47.75678" lon="6.99484">
        <ele>521</ele>
        <time>2016-10-22T11:52:47Z</time>
      </trkpt>
      <trkpt lat="47.7568" lon="6.99494">
        <ele>518</ele>
        <time>2016-10-22T11:52:50Z</time>
      </trkpt>
      <trkpt lat="47.75678" lon="6.99497">
        <ele>515</ele>
        <time>2016-10-22T11:52:58Z</time>
      </trkpt>
      <trkpt lat="47.75677" lon="6.99521">
        <ele>516</ele>
        <time>2016-10-22T11:53:30Z</time>
      </trkpt>
      <trkpt lat="47.7568" lon="6.99526">
        <ele>518</ele>
        <time>2016-10-22T11:53:34Z</time>
      </trkpt>
      <trkpt lat="47.7568" lon="6.99532">
        <ele>518</ele>
        <time>2016-10-22T11:53:42Z</time>
      </trkpt>
      <trkpt lat="47.75688" lon="6.99552">
        <ele>521</ele>
        <time>2016-10-22T11:53:56Z</time>
      </trkpt>
      <trkpt lat="47.75699" lon="6.99564">
        <ele>516</ele>
        <time>2016-10-22T11:54:07Z</time>
      </trkpt>
      <trkpt lat="47.75689" lon="6.99586">
        <ele>513</ele>
        <time>2016-10-22T11:54:13Z</time>
      </trkpt>
      <trkpt lat="47.75686" lon="6.99584">
        <ele>503</ele>
        <time>2016-10-22T11:54:25Z</time>
      </trkpt>
      <trkpt lat="47.75686" lon="6.99584">
        <ele>503</ele>
        <time>2016-10-22T11:54:32Z</time>
      </trkpt>
      <trkpt lat="47.75686" lon="6.99584">
        <ele>503</ele>
        <time>2016-10-22T11:54:33Z</time>
      </trkpt>
      <trkpt lat="47.75683" lon="6.99601">
        <ele>504</ele>
        <time>2016-10-22T11:54:59Z</time>
      </trkpt>
      <trkpt lat="47.75686" lon="6.99615">
        <ele>503</ele>
        <time>2016-10-22T11:55:09Z</time>
      </trkpt>
      <trkpt lat="47.75661" lon="6.99627">
        <ele>500</ele>
        <time>2016-10-22T11:56:29Z</time>
      </trkpt>
      <trkpt lat="47.75658" lon="6.99598">
        <ele>501</ele>
        <time>2016-10-22T11:56:43Z</time>
      </trkpt>
      <trkpt lat="47.75659" lon="6.99576">
        <ele>502</ele>
        <time>2016-10-22T11:56:55Z</time>
      </trkpt>
      <trkpt lat="47.75659" lon="6.99566">
        <ele>504</ele>
        <time>2016-10-22T11:56:59Z</time>
      </trkpt>
      <trkpt lat="47.75658" lon="6.9956">
        <ele>504</ele>
        <time>2016-10-22T11:57:09Z</time>
      </trkpt>
      <trkpt lat="47.75648" lon="6.99547">
        <ele>503</ele>
        <time>2016-10-22T11:57:22Z</time>
      </trkpt>
      <trkpt lat="47.75638" lon="6.9953">
        <ele>512</ele>
        <time>2016-10-22T11:57:38Z</time>
      </trkpt>
      <trkpt lat="47.75632" lon="6.99513">
        <ele>515</ele>
        <time>2016-10-22T11:57:55Z</time>
      </trkpt>
      <trkpt lat="47.75615" lon="6.99479">
        <ele>519</ele>
        <time>2016-10-22T11:58:32Z</time>
      </trkpt>
      <trkpt lat="47.75615" lon="6.99479">
        <ele>519</ele>
        <time>2016-10-22T11:58:40Z</time>
      </trkpt>
      <trkpt lat="47.75615" lon="6.99479">
        <ele>519</ele>
        <time>2016-10-22T11:58:41Z</time>
      </trkpt>
      <trkpt lat="47.75603" lon="6.99468">
        <ele>519</ele>
        <time>2016-10-22T11:58:53Z</time>
      </trkpt>
      <trkpt lat="47.75593" lon="6.99451">
        <ele>517</ele>
        <time>2016-10-22T11:59:06Z</time>
      </trkpt>
      <trkpt lat="47.75593" lon="6.99451">
        <ele>517</ele>
        <time>2016-10-22T11:59:13Z</time>
      </trkpt>
      <trkpt lat="47.75593" lon="6.99451">
        <ele>517</ele>
        <time>2016-10-22T11:59:15Z</time>
      </trkpt>
      <trkpt lat="47.75586" lon="6.99434">
        <ele>516</ele>
        <time>2016-10-22T11:59:29Z</time>
      </trkpt>
      <trkpt lat="47.75586" lon="6.99413">
        <ele>513</ele>
        <time>2016-10-22T11:59:43Z</time>
      </trkpt>
      <trkpt lat="47.75577" lon="6.9937">
        <ele>515</ele>
        <time>2016-10-22T12:00:24Z</time>
      </trkpt>
      <trkpt lat="47.75565" lon="6.99353">
        <ele>517</ele>
        <time>2016-10-22T12:00:40Z</time>
      </trkpt>
      <trkpt lat="47.75559" lon="6.99334">
        <ele>526</ele>
        <time>2016-10-22T12:00:58Z</time>
      </trkpt>
      <trkpt lat="47.75559" lon="6.99334">
        <ele>526</ele>
        <time>2016-10-22T12:01:05Z</time>
      </trkpt>
      <trkpt lat="47.75547" lon="6.9932">
        <ele>531</ele>
        <time>2016-10-22T12:01:13Z</time>
      </trkpt>
      <trkpt lat="47.75532" lon="6.99301">
        <ele>534</ele>
        <time>2016-10-22T12:01:35Z</time>
      </trkpt>
      <trkpt lat="47.75509" lon="6.99281">
        <ele>540</ele>
        <time>2016-10-22T12:02:23Z</time>
      </trkpt>
      <trkpt lat="47.75496" lon="6.99264">
        <ele>534</ele>
        <time>2016-10-22T12:02:35Z</time>
      </trkpt>
      <trkpt lat="47.75487" lon="6.99253">
        <ele>535</ele>
        <time>2016-10-22T12:02:45Z</time>
      </trkpt>
      <trkpt lat="47.75479" lon="6.99236">
        <ele>539</ele>
        <time>2016-10-22T12:02:56Z</time>
      </trkpt>
      <trkpt lat="47.75473" lon="6.99225">
        <ele>541</ele>
        <time>2016-10-22T12:03:09Z</time>
      </trkpt>
      <trkpt lat="47.75473" lon="6.99225">
        <ele>541</ele>
        <time>2016-10-22T12:03:16Z</time>
      </trkpt>
      <trkpt lat="47.75473" lon="6.99225">
        <ele>541</ele>
        <time>2016-10-22T12:03:18Z</time>
      </trkpt>
      <trkpt lat="47.75457" lon="6.99228">
        <ele>546</ele>
        <time>2016-10-22T12:04:40Z</time>
      </trkpt>
      <trkpt lat="47.75447" lon="6.99227">
        <ele>551</ele>
        <time>2016-10-22T12:04:49Z</time>
      </trkpt>
      <trkpt lat="47.75426" lon="6.99219">
        <ele>556</ele>
        <time>2016-10-22T12:05:06Z</time>
      </trkpt>
      <trkpt lat="47.75413" lon="6.99194">
        <ele>554</ele>
        <time>2016-10-22T12:05:22Z</time>
      </trkpt>
      <trkpt lat="47.75409" lon="6.99184">
        <ele>553</ele>
        <time>2016-10-22T12:05:32Z</time>
      </trkpt>
      <trkpt lat="47.75404" lon="6.99176">
        <ele>552</ele>
        <time>2016-10-22T12:05:43Z</time>
      </trkpt>
      <trkpt lat="47.75395" lon="6.99151">
        <ele>547</ele>
        <time>2016-10-22T12:06:05Z</time>
      </trkpt>
      <trkpt lat="47.75385" lon="6.9911">
        <ele>548</ele>
        <time>2016-10-22T12:06:42Z</time>
      </trkpt>
      <trkpt lat="47.75388" lon="6.99104">
        <ele>547</ele>
        <time>2016-10-22T12:06:46Z</time>
      </trkpt>
      <trkpt lat="47.75393" lon="6.99094">
        <ele>547</ele>
        <time>2016-10-22T12:07:00Z</time>
      </trkpt>
      <trkpt lat="47.75401" lon="6.99072">
        <ele>548</ele>
        <time>2016-10-22T12:07:15Z</time>
      </trkpt>
      <trkpt lat="47.75411" lon="6.99046">
        <ele>551</ele>
        <time>2016-10-22T12:07:32Z</time>
      </trkpt>
      <trkpt lat="47.75417" lon="6.99021">
        <ele>552</ele>
        <time>2016-10-22T12:07:48Z</time>
      </trkpt>
      <trkpt lat="47.75419" lon="6.9901">
        <ele>553</ele>
        <time>2016-10-22T12:07:56Z</time>
      </trkpt>
      <trkpt lat="47.75422" lon="6.99002">
        <ele>551</ele>
        <time>2016-10-22T12:08:10Z</time>
      </trkpt>
      <trkpt lat="47.75432" lon="6.98987">
        <ele>549</ele>
        <time>2016-10-22T12:08:22Z</time>
      </trkpt>
      <trkpt lat="47.75437" lon="6.98978">
        <ele>549</ele>
        <time>2016-10-22T12:08:36Z</time>
      </trkpt>
      <trkpt lat="47.75445" lon="6.98955">
        <ele>549</ele>
        <time>2016-10-22T12:08:49Z</time>
      </trkpt>
      <trkpt lat="47.75445" lon="6.98955">
        <ele>549</ele>
        <time>2016-10-22T12:08:56Z</time>
      </trkpt>
      <trkpt lat="47.75448" lon="6.98937">
        <ele>548</ele>
        <time>2016-10-22T12:09:06Z</time>
      </trkpt>
      <trkpt lat="47.75451" lon="6.98919">
        <ele>553</ele>
        <time>2016-10-22T12:09:19Z</time>
      </trkpt>
      <trkpt lat="47.7545" lon="6.98897">
        <ele>556</ele>
        <time>2016-10-22T12:09:33Z</time>
      </trkpt>
      <trkpt lat="47.75447" lon="6.98873">
        <ele>562</ele>
        <time>2016-10-22T12:09:50Z</time>
      </trkpt>
      <trkpt lat="47.75457" lon="6.98845">
        <ele>562</ele>
        <time>2016-10-22T12:10:13Z</time>
      </trkpt>
      <trkpt lat="47.75461" lon="6.98823">
        <ele>568</ele>
        <time>2016-10-22T12:10:26Z</time>
      </trkpt>
      <trkpt lat="47.75471" lon="6.988">
        <ele>568</ele>
        <time>2016-10-22T12:10:45Z</time>
      </trkpt>
      <trkpt lat="47.75471" lon="6.988">
        <ele>568</ele>
        <time>2016-10-22T12:10:52Z</time>
      </trkpt>
      <trkpt lat="47.75468" lon="6.98774">
        <ele>570</ele>
        <time>2016-10-22T12:11:04Z</time>
      </trkpt>
      <trkpt lat="47.75474" lon="6.98745">
        <ele>572</ele>
        <time>2016-10-22T12:11:22Z</time>
      </trkpt>
      <trkpt lat="47.75478" lon="6.98737">
        <ele>575</ele>
        <time>2016-10-22T12:11:31Z</time>
      </trkpt>
      <trkpt lat="47.7548" lon="6.98717">
        <ele>577</ele>
        <time>2016-10-22T12:11:44Z</time>
      </trkpt>
      <trkpt lat="47.75481" lon="6.98703">
        <ele>576</ele>
        <time>2016-10-22T12:11:57Z</time>
      </trkpt>
      <trkpt lat="47.75485" lon="6.98664">
        <ele>577</ele>
        <time>2016-10-22T12:13:04Z</time>
      </trkpt>
      <trkpt lat="47.75484" lon="6.98659">
        <ele>579</ele>
        <time>2016-10-22T12:13:06Z</time>
      </trkpt>
      <trkpt lat="47.75479" lon="6.98648">
        <ele>577</ele>
        <time>2016-10-22T12:13:21Z</time>
      </trkpt>
      <trkpt lat="47.75472" lon="6.98607">
        <ele>583</ele>
        <time>2016-10-22T12:13:57Z</time>
      </trkpt>
      <trkpt lat="47.75474" lon="6.98593">
        <ele>584</ele>
        <time>2016-10-22T12:14:08Z</time>
      </trkpt>
      <trkpt lat="47.75465" lon="6.98568">
        <ele>585</ele>
        <time>2016-10-22T12:14:25Z</time>
      </trkpt>
      <trkpt lat="47.75461" lon="6.98539">
        <ele>587</ele>
        <time>2016-10-22T12:14:44Z</time>
      </trkpt>
      <trkpt lat="47.75461" lon="6.98539">
        <ele>587</ele>
        <time>2016-10-22T12:14:51Z</time>
      </trkpt>
      <trkpt lat="47.75461" lon="6.98539">
        <ele>587</ele>
        <time>2016-10-22T12:14:52Z</time>
      </trkpt>
      <trkpt lat="47.7545" lon="6.98526">
        <ele>588</ele>
        <time>2016-10-22T12:15:06Z</time>
      </trkpt>
      <trkpt lat="47.75441" lon="6.98505">
        <ele>591</ele>
        <time>2016-10-22T12:15:24Z</time>
      </trkpt>
      <trkpt lat="47.75432" lon="6.98492">
        <ele>594</ele>
        <time>2016-10-22T12:15:42Z</time>
      </trkpt>
      <trkpt lat="47.75386" lon="6.98427">
        <ele>603</ele>
        <time>2016-10-22T12:16:39Z</time>
      </trkpt>
      <trkpt lat="47.75399" lon="6.98415">
        <ele>596</ele>
        <time>2016-10-22T12:16:42Z</time>
      </trkpt>
      <trkpt lat="47.75396" lon="6.98404">
        <ele>600</ele>
        <time>2016-10-22T12:16:52Z</time>
      </trkpt>
      <trkpt lat="47.75398" lon="6.984">
        <ele>601</ele>
        <time>2016-10-22T12:16:54Z</time>
      </trkpt>
      <trkpt lat="47.75396" lon="6.98404">
        <ele>600</ele>
        <time>2016-10-22T12:17:02Z</time>
      </trkpt>
      <trkpt lat="47.75398" lon="6.98381">
        <ele>598</ele>
        <time>2016-10-22T12:17:18Z</time>
      </trkpt>
      <trkpt lat="47.75393" lon="6.98363">
        <ele>598</ele>
        <time>2016-10-22T12:17:39Z</time>
      </trkpt>
      <trkpt lat="47.75382" lon="6.98323">
        <ele>606</ele>
        <time>2016-10-22T12:18:24Z</time>
      </trkpt>
      <trkpt lat="47.75372" lon="6.98292">
        <ele>612</ele>
        <time>2016-10-22T12:18:43Z</time>
      </trkpt>
      <trkpt lat="47.75365" lon="6.98269">
        <ele>610</ele>
        <time>2016-10-22T12:19:03Z</time>
      </trkpt>
      <trkpt lat="47.75364" lon="6.98246">
        <ele>612</ele>
        <time>2016-10-22T12:19:20Z</time>
      </trkpt>
      <trkpt lat="47.75365" lon="6.98242">
        <ele>617</ele>
        <time>2016-10-22T12:19:24Z</time>
      </trkpt>
      <trkpt lat="47.75362" lon="6.98238">
        <ele>621</ele>
        <time>2016-10-22T12:19:32Z</time>
      </trkpt>
      <trkpt lat="47.75377" lon="6.98199">
        <ele>614</ele>
        <time>2016-10-22T12:20:37Z</time>
      </trkpt>
      <trkpt lat="47.75383" lon="6.98188">
        <ele>615</ele>
        <time>2016-10-22T12:20:44Z</time>
      </trkpt>
      <trkpt lat="47.75387" lon="6.98182">
        <ele>613</ele>
        <time>2016-10-22T12:20:48Z</time>
      </trkpt>
      <trkpt lat="47.75391" lon="6.98178">
        <ele>618</ele>
        <time>2016-10-22T12:21:00Z</time>
      </trkpt>
      <trkpt lat="47.75391" lon="6.98178">
        <ele>618</ele>
        <time>2016-10-22T12:21:08Z</time>
      </trkpt>
      <trkpt lat="47.75391" lon="6.98178">
        <ele>618</ele>
        <time>2016-10-22T12:21:09Z</time>
      </trkpt>
      <trkpt lat="47.75399" lon="6.98146">
        <ele>624</ele>
        <time>2016-10-22T12:21:32Z</time>
      </trkpt>
      <trkpt lat="47.75404" lon="6.98145">
        <ele>620</ele>
        <time>2016-10-22T12:21:37Z</time>
      </trkpt>
      <trkpt lat="47.75405" lon="6.98133">
        <ele>620</ele>
        <time>2016-10-22T12:21:46Z</time>
      </trkpt>
      <trkpt lat="47.75405" lon="6.98133">
        <ele>620</ele>
        <time>2016-10-22T12:21:53Z</time>
      </trkpt>
      <trkpt lat="47.75405" lon="6.98133">
        <ele>620</ele>
        <time>2016-10-22T12:21:54Z</time>
      </trkpt>
      <trkpt lat="47.75403" lon="6.98104">
        <ele>619</ele>
        <time>2016-10-22T12:22:15Z</time>
      </trkpt>
      <trkpt lat="47.75407" lon="6.981">
        <ele>617</ele>
        <time>2016-10-22T12:22:19Z</time>
      </trkpt>
      <trkpt lat="47.75411" lon="6.98089">
        <ele>620</ele>
        <time>2016-10-22T12:22:32Z</time>
      </trkpt>
      <trkpt lat="47.75412" lon="6.98065">
        <ele>623</ele>
        <time>2016-10-22T12:22:51Z</time>
      </trkpt>
      <trkpt lat="47.75421" lon="6.98048">
        <ele>624</ele>
        <time>2016-10-22T12:23:03Z</time>
      </trkpt>
      <trkpt lat="47.75421" lon="6.98041">
        <ele>623</ele>
        <time>2016-10-22T12:23:07Z</time>
      </trkpt>
      <trkpt lat="47.75417" lon="6.98029">
        <ele>621</ele>
        <time>2016-10-22T12:23:18Z</time>
      </trkpt>
      <trkpt lat="47.75411" lon="6.98017">
        <ele>625</ele>
        <time>2016-10-22T12:23:27Z</time>
      </trkpt>
      <trkpt lat="47.7541" lon="6.98012">
        <ele>627</ele>
        <time>2016-10-22T12:23:37Z</time>
      </trkpt>
      <trkpt lat="47.75411" lon="6.97989">
        <ele>634</ele>
        <time>2016-10-22T12:23:55Z</time>
      </trkpt>
      <trkpt lat="47.75408" lon="6.97975">
        <ele>633</ele>
        <time>2016-10-22T12:24:05Z</time>
      </trkpt>
      <trkpt lat="47.75405" lon="6.97972">
        <ele>637</ele>
        <time>2016-10-22T12:24:10Z</time>
      </trkpt>
      <trkpt lat="47.75408" lon="6.97975">
        <ele>633</ele>
        <time>2016-10-22T12:24:18Z</time>
      </trkpt>
      <trkpt lat="47.7539" lon="6.98007">
        <ele>636</ele>
        <time>2016-10-22T12:27:15Z</time>
      </trkpt>
      <trkpt lat="47.7539" lon="6.98007">
        <ele>636</ele>
        <time>2016-10-22T12:27:22Z</time>
      </trkpt>
      <trkpt lat="47.7539" lon="6.98007">
        <ele>636</ele>
        <time>2016-10-22T12:27:23Z</time>
      </trkpt>
      <trkpt lat="47.75385" lon="6.98025">
        <ele>644</ele>
        <time>2016-10-22T12:27:45Z</time>
      </trkpt>
      <trkpt lat="47.75373" lon="6.98034">
        <ele>638</ele>
        <time>2016-10-22T12:27:52Z</time>
      </trkpt>
      <trkpt lat="47.75364" lon="6.98049">
        <ele>641</ele>
        <time>2016-10-22T12:28:01Z</time>
      </trkpt>
      <trkpt lat="47.7536" lon="6.98054">
        <ele>642</ele>
        <time>2016-10-22T12:28:04Z</time>
      </trkpt>
      <trkpt lat="47.75351" lon="6.98066">
        <ele>650</ele>
        <time>2016-10-22T12:28:19Z</time>
      </trkpt>
      <trkpt lat="47.75341" lon="6.98084">
        <ele>654</ele>
        <time>2016-10-22T12:28:32Z</time>
      </trkpt>
      <trkpt lat="47.75335" lon="6.98091">
        <ele>653</ele>
        <time>2016-10-22T12:28:35Z</time>
      </trkpt>
      <trkpt lat="47.75334" lon="6.98101">
        <ele>656</ele>
        <time>2016-10-22T12:28:49Z</time>
      </trkpt>
      <trkpt lat="47.75314" lon="6.9813">
        <ele>663</ele>
        <time>2016-10-22T12:29:42Z</time>
      </trkpt>
      <trkpt lat="47.75299" lon="6.9815">
        <ele>660</ele>
        <time>2016-10-22T12:30:00Z</time>
      </trkpt>
      <trkpt lat="47.75297" lon="6.98154">
        <ele>662</ele>
        <time>2016-10-22T12:30:02Z</time>
      </trkpt>
      <trkpt lat="47.75293" lon="6.98157">
        <ele>659</ele>
        <time>2016-10-22T12:30:18Z</time>
      </trkpt>
      <trkpt lat="47.7528" lon="6.98171">
        <ele>658</ele>
        <time>2016-10-22T12:30:32Z</time>
      </trkpt>
      <trkpt lat="47.7528" lon="6.98171">
        <ele>658</ele>
        <time>2016-10-22T12:30:39Z</time>
      </trkpt>
      <trkpt lat="47.7528" lon="6.98171">
        <ele>658</ele>
        <time>2016-10-22T12:30:40Z</time>
      </trkpt>
      <trkpt lat="47.75273" lon="6.98188">
        <ele>672</ele>
        <time>2016-10-22T12:30:48Z</time>
      </trkpt>
      <trkpt lat="47.75273" lon="6.98188">
        <ele>672</ele>
        <time>2016-10-22T12:30:56Z</time>
      </trkpt>
      <trkpt lat="47.75273" lon="6.98188">
        <ele>672</ele>
        <time>2016-10-22T12:30:57Z</time>
      </trkpt>
      <trkpt lat="47.75254" lon="6.98221">
        <ele>666</ele>
        <time>2016-10-22T12:31:30Z</time>
      </trkpt>
      <trkpt lat="47.75245" lon="6.98233">
        <ele>662</ele>
        <time>2016-10-22T12:31:38Z</time>
      </trkpt>
      <trkpt lat="47.75245" lon="6.9824">
        <ele>665</ele>
        <time>2016-10-22T12:31:47Z</time>
      </trkpt>
      <trkpt lat="47.75232" lon="6.98263">
        <ele>665</ele>
        <time>2016-10-22T12:33:02Z</time>
      </trkpt>
      <trkpt lat="47.75227" lon="6.98278">
        <ele>672</ele>
        <time>2016-10-22T12:33:11Z</time>
      </trkpt>
      <trkpt lat="47.75219" lon="6.9829">
        <ele>672</ele>
        <time>2016-10-22T12:33:26Z</time>
      </trkpt>
      <trkpt lat="47.75206" lon="6.98304">
        <ele>672</ele>
        <time>2016-10-22T12:33:37Z</time>
      </trkpt>
      <trkpt lat="47.75206" lon="6.98304">
        <ele>672</ele>
        <time>2016-10-22T12:33:45Z</time>
      </trkpt>
      <trkpt lat="47.75206" lon="6.98304">
        <ele>672</ele>
        <time>2016-10-22T12:33:47Z</time>
      </trkpt>
      <trkpt lat="47.75178" lon="6.98327">
        <ele>684</ele>
        <time>2016-10-22T12:34:24Z</time>
      </trkpt>
      <trkpt lat="47.75178" lon="6.98327">
        <ele>684</ele>
        <time>2016-10-22T12:34:32Z</time>
      </trkpt>
      <trkpt lat="47.75178" lon="6.98327">
        <ele>684</ele>
        <time>2016-10-22T12:34:34Z</time>
      </trkpt>
      <trkpt lat="47.75153" lon="6.9834">
        <ele>692</ele>
        <time>2016-10-22T12:35:18Z</time>
      </trkpt>
      <trkpt lat="47.75139" lon="6.98349">
        <ele>694</ele>
        <time>2016-10-22T12:35:32Z</time>
      </trkpt>
      <trkpt lat="47.7513" lon="6.98348">
        <ele>691</ele>
        <time>2016-10-22T12:35:40Z</time>
      </trkpt>
      <trkpt lat="47.75131" lon="6.98344">
        <ele>690</ele>
        <time>2016-10-22T12:35:49Z</time>
      </trkpt>
      <trkpt lat="47.75124" lon="6.98327">
        <ele>693</ele>
        <time>2016-10-22T12:36:02Z</time>
      </trkpt>
      <trkpt lat="47.75114" lon="6.98312">
        <ele>644</ele>
        <time>2016-10-22T12:36:14Z</time>
      </trkpt>
      <trkpt lat="47.75105" lon="6.98295">
        <ele>688</ele>
        <time>2016-10-22T12:36:27Z</time>
      </trkpt>
      <trkpt lat="47.75104" lon="6.9828">
        <ele>691</ele>
        <time>2016-10-22T12:36:39Z</time>
      </trkpt>
      <trkpt lat="47.75112" lon="6.98253">
        <ele>692</ele>
        <time>2016-10-22T12:36:57Z</time>
      </trkpt>
      <trkpt lat="47.75112" lon="6.98253">
        <ele>692</ele>
        <time>2016-10-22T12:37:02Z</time>
      </trkpt>
      <trkpt lat="47.75112" lon="6.98253">
        <ele>692</ele>
        <time>2016-10-22T12:37:03Z</time>
      </trkpt>
      <trkpt lat="47.75129" lon="6.98259">
        <ele>697</ele>
        <time>2016-10-22T12:38:56Z</time>
      </trkpt>
      <trkpt lat="47.75142" lon="6.98263">
        <ele>695</ele>
        <time>2016-10-22T12:39:06Z</time>
      </trkpt>
      <trkpt lat="47.75145" lon="6.98265">
        <ele>695</ele>
        <time>2016-10-22T12:39:08Z</time>
      </trkpt>
      <trkpt lat="47.75157" lon="6.98262">
        <ele>702</ele>
        <time>2016-10-22T12:39:20Z</time>
      </trkpt>
      <trkpt lat="47.75166" lon="6.98244">
        <ele>698</ele>
        <time>2016-10-22T12:39:34Z</time>
      </trkpt>
      <trkpt lat="47.7517" lon="6.9823">
        <ele>696</ele>
        <time>2016-10-22T12:39:45Z</time>
      </trkpt>
      <trkpt lat="47.75171" lon="6.98231">
        <ele>697</ele>
        <time>2016-10-22T12:39:53Z</time>
      </trkpt>
      <trkpt lat="47.75174" lon="6.98188">
        <ele>706</ele>
        <time>2016-10-22T12:40:27Z</time>
      </trkpt>
      <trkpt lat="47.75176" lon="6.98173">
        <ele>709</ele>
        <time>2016-10-22T12:40:39Z</time>
      </trkpt>
      <trkpt lat="47.75184" lon="6.98157">
        <ele>708</ele>
        <time>2016-10-22T12:40:53Z</time>
      </trkpt>
      <trkpt lat="47.75184" lon="6.98157">
        <ele>708</ele>
        <time>2016-10-22T12:41:00Z</time>
      </trkpt>
      <trkpt lat="47.75184" lon="6.98157">
        <ele>708</ele>
        <time>2016-10-22T12:41:01Z</time>
      </trkpt>
      <trkpt lat="47.75187" lon="6.98129">
        <ele>710</ele>
        <time>2016-10-22T12:41:20Z</time>
      </trkpt>
      <trkpt lat="47.75186" lon="6.98123">
        <ele>711</ele>
        <time>2016-10-22T12:41:25Z</time>
      </trkpt>
      <trkpt lat="47.75188" lon="6.98119">
        <ele>715</ele>
        <time>2016-10-22T12:41:34Z</time>
      </trkpt>
      <trkpt lat="47.75199" lon="6.98088">
        <ele>720</ele>
        <time>2016-10-22T12:42:00Z</time>
      </trkpt>
      <trkpt lat="47.75202" lon="6.98072">
        <ele>718</ele>
        <time>2016-10-22T12:42:11Z</time>
      </trkpt>
      <trkpt lat="47.75208" lon="6.98045">
        <ele>725</ele>
        <time>2016-10-22T12:42:31Z</time>
      </trkpt>
      <trkpt lat="47.75213" lon="6.98022">
        <ele>724</ele>
        <time>2016-10-22T12:42:45Z</time>
      </trkpt>
      <trkpt lat="47.75218" lon="6.97995">
        <ele>728</ele>
        <time>2016-10-22T12:43:02Z</time>
      </trkpt>
      <trkpt lat="47.75219" lon="6.97987">
        <ele>726</ele>
        <time>2016-10-22T12:43:06Z</time>
      </trkpt>
      <trkpt lat="47.7522" lon="6.97974">
        <ele>730</ele>
        <time>2016-10-22T12:43:18Z</time>
      </trkpt>
      <trkpt lat="47.75228" lon="6.97965">
        <ele>735</ele>
        <time>2016-10-22T12:43:24Z</time>
      </trkpt>
      <trkpt lat="47.75227" lon="6.97959">
        <ele>729</ele>
        <time>2016-10-22T12:43:33Z</time>
      </trkpt>
      <trkpt lat="47.75238" lon="6.97922">
        <ele>725</ele>
        <time>2016-10-22T12:44:10Z</time>
      </trkpt>
      <trkpt lat="47.75237" lon="6.97915">
        <ele>724</ele>
        <time>2016-10-22T12:44:14Z</time>
      </trkpt>
      <trkpt lat="47.75242" lon="6.97904">
        <ele>729</ele>
        <time>2016-10-22T12:44:28Z</time>
      </trkpt>
      <trkpt lat="47.75249" lon="6.97884">
        <ele>730</ele>
        <time>2016-10-22T12:44:41Z</time>
      </trkpt>
      <trkpt lat="47.75257" lon="6.97864">
        <ele>735</ele>
        <time>2016-10-22T12:44:54Z</time>
      </trkpt>
      <trkpt lat="47.75264" lon="6.97849">
        <ele>736</ele>
        <time>2016-10-22T12:45:07Z</time>
      </trkpt>
      <trkpt lat="47.7526" lon="6.97832">
        <ele>733</ele>
        <time>2016-10-22T12:45:29Z</time>
      </trkpt>
      <trkpt lat="47.75266" lon="6.97787">
        <ele>732</ele>
        <time>2016-10-22T12:46:13Z</time>
      </trkpt>
      <trkpt lat="47.75266" lon="6.97758">
        <ele>732</ele>
        <time>2016-10-22T12:46:30Z</time>
      </trkpt>
      <trkpt lat="47.75266" lon="6.97758">
        <ele>732</ele>
        <time>2016-10-22T12:46:37Z</time>
      </trkpt>
      <trkpt lat="47.75269" lon="6.97736">
        <ele>742</ele>
        <time>2016-10-22T12:46:48Z</time>
      </trkpt>
      <trkpt lat="47.75266" lon="6.97714">
        <ele>747</ele>
        <time>2016-10-22T12:47:06Z</time>
      </trkpt>
      <trkpt lat="47.75262" lon="6.97698">
        <ele>748</ele>
        <time>2016-10-22T12:47:22Z</time>
      </trkpt>
      <trkpt lat="47.75265" lon="6.97695">
        <ele>749</ele>
        <time>2016-10-22T12:47:32Z</time>
      </trkpt>
      <trkpt lat="47.75254" lon="6.97672">
        <ele>751</ele>
        <time>2016-10-22T12:49:26Z</time>
      </trkpt>
      <trkpt lat="47.75254" lon="6.97672">
        <ele>751</ele>
        <time>2016-10-22T12:49:34Z</time>
      </trkpt>
      <trkpt lat="47.75254" lon="6.97672">
        <ele>751</ele>
        <time>2016-10-22T12:49:35Z</time>
      </trkpt>
      <trkpt lat="47.7525" lon="6.97651">
        <ele>754</ele>
        <time>2016-10-22T12:49:46Z</time>
      </trkpt>
      <trkpt lat="47.7525" lon="6.97651">
        <ele>754</ele>
        <time>2016-10-22T12:49:53Z</time>
      </trkpt>
      <trkpt lat="47.7525" lon="6.97651">
        <ele>754</ele>
        <time>2016-10-22T12:49:54Z</time>
      </trkpt>
      <trkpt lat="47.75248" lon="6.97632">
        <ele>757</ele>
        <time>2016-10-22T12:50:10Z</time>
      </trkpt>
      <trkpt lat="47.75249" lon="6.97608">
        <ele>762</ele>
        <time>2016-10-22T12:50:24Z</time>
      </trkpt>
      <trkpt lat="47.75245" lon="6.97589">
        <ele>767</ele>
        <time>2016-10-22T12:50:37Z</time>
      </trkpt>
      <trkpt lat="47.75243" lon="6.97568">
        <ele>770</ele>
        <time>2016-10-22T12:50:56Z</time>
      </trkpt>
      <trkpt lat="47.7524" lon="6.97554">
        <ele>767</ele>
        <time>2016-10-22T12:51:08Z</time>
      </trkpt>
      <trkpt lat="47.7524" lon="6.97535">
        <ele>768</ele>
        <time>2016-10-22T12:51:22Z</time>
      </trkpt>
      <trkpt lat="47.75248" lon="6.97513">
        <ele>769</ele>
        <time>2016-10-22T12:51:32Z</time>
      </trkpt>
      <trkpt lat="47.75248" lon="6.97513">
        <ele>769</ele>
        <time>2016-10-22T12:51:37Z</time>
      </trkpt>
      <trkpt lat="47.75248" lon="6.97513">
        <ele>769</ele>
        <time>2016-10-22T12:51:38Z</time>
      </trkpt>
      <trkpt lat="47.75249" lon="6.97495">
        <ele>777</ele>
        <time>2016-10-22T12:51:58Z</time>
      </trkpt>
      <trkpt lat="47.75254" lon="6.97452">
        <ele>780</ele>
        <time>2016-10-22T12:52:42Z</time>
      </trkpt>
      <trkpt lat="47.75247" lon="6.97412">
        <ele>788</ele>
        <time>2016-10-22T12:53:16Z</time>
      </trkpt>
      <trkpt lat="47.75247" lon="6.97412">
        <ele>788</ele>
        <time>2016-10-22T12:53:21Z</time>
      </trkpt>
      <trkpt lat="47.75247" lon="6.97412">
        <ele>788</ele>
        <time>2016-10-22T12:53:22Z</time>
      </trkpt>
      <trkpt lat="47.75258" lon="6.97371">
        <ele>790</ele>
        <time>2016-10-22T12:53:57Z</time>
      </trkpt>
      <trkpt lat="47.75263" lon="6.97359">
        <ele>788</ele>
        <time>2016-10-22T12:54:04Z</time>
      </trkpt>
      <trkpt lat="47.75267" lon="6.97339">
        <ele>786</ele>
        <time>2016-10-22T12:54:18Z</time>
      </trkpt>
      <trkpt lat="47.75273" lon="6.97318">
        <ele>792</ele>
        <time>2016-10-22T12:54:35Z</time>
      </trkpt>
      <trkpt lat="47.75273" lon="6.97318">
        <ele>792</ele>
        <time>2016-10-22T12:54:42Z</time>
      </trkpt>
      <trkpt lat="47.75279" lon="6.97306">
        <ele>795</ele>
        <time>2016-10-22T12:54:50Z</time>
      </trkpt>
      <trkpt lat="47.75279" lon="6.97306">
        <ele>795</ele>
        <time>2016-10-22T12:57:09Z</time>
      </trkpt>
      <trkpt lat="47.75289" lon="6.97259">
        <ele>797</ele>
        <time>2016-10-22T12:57:16Z</time>
      </trkpt>
      <trkpt lat="47.75297" lon="6.97229">
        <ele>797</ele>
        <time>2016-10-22T12:57:30Z</time>
      </trkpt>
      <trkpt lat="47.75298" lon="6.97223">
        <ele>800</ele>
        <time>2016-10-22T12:57:39Z</time>
      </trkpt>
      <trkpt lat="47.75314" lon="6.972">
        <ele>809</ele>
        <time>2016-10-22T12:58:03Z</time>
      </trkpt>
      <trkpt lat="47.75314" lon="6.972">
        <ele>809</ele>
        <time>2016-10-22T12:58:10Z</time>
      </trkpt>
      <trkpt lat="47.75314" lon="6.972">
        <ele>809</ele>
        <time>2016-10-22T12:58:11Z</time>
      </trkpt>
      <trkpt lat="47.75324" lon="6.97194">
        <ele>802</ele>
        <time>2016-10-22T12:58:18Z</time>
      </trkpt>
      <trkpt lat="47.7533" lon="6.97193">
        <ele>798</ele>
        <time>2016-10-22T12:58:22Z</time>
      </trkpt>
      <trkpt lat="47.75336" lon="6.97198">
        <ele>790</ele>
        <time>2016-10-22T12:58:33Z</time>
      </trkpt>
      <trkpt lat="47.75336" lon="6.97198">
        <ele>790</ele>
        <time>2016-10-22T12:58:41Z</time>
      </trkpt>
      <trkpt lat="47.75336" lon="6.97198">
        <ele>790</ele>
        <time>2016-10-22T12:58:42Z</time>
      </trkpt>
      <trkpt lat="47.75351" lon="6.97204">
        <ele>791</ele>
        <time>2016-10-22T12:58:57Z</time>
      </trkpt>
      <trkpt lat="47.75365" lon="6.97207">
        <ele>793</ele>
        <time>2016-10-22T12:59:08Z</time>
      </trkpt>
      <trkpt lat="47.75374" lon="6.9721">
        <ele>792</ele>
        <time>2016-10-22T12:59:19Z</time>
      </trkpt>
      <trkpt lat="47.75392" lon="6.97212">
        <ele>791</ele>
        <time>2016-10-22T12:59:32Z</time>
      </trkpt>
      <trkpt lat="47.75405" lon="6.97217">
        <ele>794</ele>
        <time>2016-10-22T12:59:48Z</time>
      </trkpt>
      <trkpt lat="47.75426" lon="6.97213">
        <ele>785</ele>
        <time>2016-10-22T13:00:12Z</time>
      </trkpt>
      <trkpt lat="47.75441" lon="6.97208">
        <ele>783</ele>
        <time>2016-10-22T13:00:20Z</time>
      </trkpt>
      <trkpt lat="47.75464" lon="6.97196">
        <ele>781</ele>
        <time>2016-10-22T13:00:39Z</time>
      </trkpt>
      <trkpt lat="47.75476" lon="6.97179">
        <ele>777</ele>
        <time>2016-10-22T13:00:54Z</time>
      </trkpt>
      <trkpt lat="47.75489" lon="6.97175">
        <ele>781</ele>
        <time>2016-10-22T13:01:04Z</time>
      </trkpt>
      <trkpt lat="47.755" lon="6.97155">
        <ele>780</ele>
        <time>2016-10-22T13:01:19Z</time>
      </trkpt>
      <trkpt lat="47.75507" lon="6.97135">
        <ele>781</ele>
        <time>2016-10-22T13:01:34Z</time>
      </trkpt>
      <trkpt lat="47.75525" lon="6.97121">
        <ele>782</ele>
        <time>2016-10-22T13:01:48Z</time>
      </trkpt>
      <trkpt lat="47.75527" lon="6.9711">
        <ele>783</ele>
        <time>2016-10-22T13:01:57Z</time>
      </trkpt>
      <trkpt lat="47.75542" lon="6.97106">
        <ele>787</ele>
        <time>2016-10-22T13:02:04Z</time>
      </trkpt>
      <trkpt lat="47.75558" lon="6.97098">
        <ele>787</ele>
        <time>2016-10-22T13:02:15Z</time>
      </trkpt>
      <trkpt lat="47.75569" lon="6.97073">
        <ele>782</ele>
        <time>2016-10-22T13:02:30Z</time>
      </trkpt>
      <trkpt lat="47.75581" lon="6.97064">
        <ele>782</ele>
        <time>2016-10-22T13:02:41Z</time>
      </trkpt>
      <trkpt lat="47.7559" lon="6.97053">
        <ele>781</ele>
        <time>2016-10-22T13:02:55Z</time>
      </trkpt>
      <trkpt lat="47.7561" lon="6.97031">
        <ele>783</ele>
        <time>2016-10-22T13:03:13Z</time>
      </trkpt>
      <trkpt lat="47.75619" lon="6.97023">
        <ele>784</ele>
        <time>2016-10-22T13:03:19Z</time>
      </trkpt>
      <trkpt lat="47.75625" lon="6.97013">
        <ele>781</ele>
        <time>2016-10-22T13:03:28Z</time>
      </trkpt>
      <trkpt lat="47.75635" lon="6.96993">
        <ele>784</ele>
        <time>2016-10-22T13:03:43Z</time>
      </trkpt>
      <trkpt lat="47.75646" lon="6.96985">
        <ele>780</ele>
        <time>2016-10-22T13:03:52Z</time>
      </trkpt>
      <trkpt lat="47.7566" lon="6.96969">
        <ele>775</ele>
        <time>2016-10-22T13:04:08Z</time>
      </trkpt>
      <trkpt lat="47.75668" lon="6.96958">
        <ele>776</ele>
        <time>2016-10-22T13:04:15Z</time>
      </trkpt>
      <trkpt lat="47.75672" lon="6.96954">
        <ele>780</ele>
        <time>2016-10-22T13:04:21Z</time>
      </trkpt>
      <trkpt lat="47.75686" lon="6.96939">
        <ele>785</ele>
        <time>2016-10-22T13:04:36Z</time>
      </trkpt>
      <trkpt lat="47.757" lon="6.96928">
        <ele>787</ele>
        <time>2016-10-22T13:04:50Z</time>
      </trkpt>
      <trkpt lat="47.75709" lon="6.96934">
        <ele>792</ele>
        <time>2016-10-22T13:04:57Z</time>
      </trkpt>
      <trkpt lat="47.75718" lon="6.96934">
        <ele>790</ele>
        <time>2016-10-22T13:05:08Z</time>
      </trkpt>
      <trkpt lat="47.75731" lon="6.96946">
        <ele>788</ele>
        <time>2016-10-22T13:05:17Z</time>
      </trkpt>
      <trkpt lat="47.75744" lon="6.96959">
        <ele>792</ele>
        <time>2016-10-22T13:05:27Z</time>
      </trkpt>
      <trkpt lat="47.75756" lon="6.96968">
        <ele>796</ele>
        <time>2016-10-22T13:05:39Z</time>
      </trkpt>
      <trkpt lat="47.75771" lon="6.96979">
        <ele>792</ele>
        <time>2016-10-22T13:05:52Z</time>
      </trkpt>
      <trkpt lat="47.75779" lon="6.96984">
        <ele>793</ele>
        <time>2016-10-22T13:05:58Z</time>
      </trkpt>
      <trkpt lat="47.75794" lon="6.97008">
        <ele>792</ele>
        <time>2016-10-22T13:06:11Z</time>
      </trkpt>
      <trkpt lat="47.75799" lon="6.97024">
        <ele>785</ele>
        <time>2016-10-22T13:06:22Z</time>
      </trkpt>
      <trkpt lat="47.7581" lon="6.97039">
        <ele>779</ele>
        <time>2016-10-22T13:06:37Z</time>
      </trkpt>
      <trkpt lat="47.75831" lon="6.97064">
        <ele>776</ele>
        <time>2016-10-22T13:06:58Z</time>
      </trkpt>
      <trkpt lat="47.75847" lon="6.97089">
        <ele>773</ele>
        <time>2016-10-22T13:07:14Z</time>
      </trkpt>
      <trkpt lat="47.75862" lon="6.97096">
        <ele>773</ele>
        <time>2016-10-22T13:07:25Z</time>
      </trkpt>
      <trkpt lat="47.7588" lon="6.97109">
        <ele>772</ele>
        <time>2016-10-22T13:07:41Z</time>
      </trkpt>
      <trkpt lat="47.75885" lon="6.97135">
        <ele>776</ele>
        <time>2016-10-22T13:07:53Z</time>
      </trkpt>
      <trkpt lat="47.75899" lon="6.97147">
        <ele>771</ele>
        <time>2016-10-22T13:08:03Z</time>
      </trkpt>
      <trkpt lat="47.75907" lon="6.97167">
        <ele>772</ele>
        <time>2016-10-22T13:08:15Z</time>
      </trkpt>
      <trkpt lat="47.75924" lon="6.9719">
        <ele>769</ele>
        <time>2016-10-22T13:08:31Z</time>
      </trkpt>
      <trkpt lat="47.75936" lon="6.97207">
        <ele>769</ele>
        <time>2016-10-22T13:08:44Z</time>
      </trkpt>
      <trkpt lat="47.75945" lon="6.97224">
        <ele>770</ele>
        <time>2016-10-22T13:08:57Z</time>
      </trkpt>
      <trkpt lat="47.75959" lon="6.97238">
        <ele>775</ele>
        <time>2016-10-22T13:09:05Z</time>
      </trkpt>
      <trkpt lat="47.75962" lon="6.9724">
        <ele>774</ele>
        <time>2016-10-22T13:09:09Z</time>
      </trkpt>
      <trkpt lat="47.75972" lon="6.97254">
        <ele>772</ele>
        <time>2016-10-22T13:09:20Z</time>
      </trkpt>
      <trkpt lat="47.75982" lon="6.97261">
        <ele>767</ele>
        <time>2016-10-22T13:09:30Z</time>
      </trkpt>
      <trkpt lat="47.76001" lon="6.9727">
        <ele>766</ele>
        <time>2016-10-22T13:09:47Z</time>
      </trkpt>
      <trkpt lat="47.76008" lon="6.97286">
        <ele>764</ele>
        <time>2016-10-22T13:10:00Z</time>
      </trkpt>
      <trkpt lat="47.76031" lon="6.97289">
        <ele>770</ele>
        <time>2016-10-22T13:10:13Z</time>
      </trkpt>
      <trkpt lat="47.76035" lon="6.97286">
        <ele>769</ele>
        <time>2016-10-22T13:10:19Z</time>
      </trkpt>
      <trkpt lat="47.76039" lon="6.97284">
        <ele>769</ele>
        <time>2016-10-22T13:10:27Z</time>
      </trkpt>
      <trkpt lat="47.76052" lon="6.97293">
        <ele>755</ele>
        <time>2016-10-22T13:10:39Z</time>
      </trkpt>
      <trkpt lat="47.76071" lon="6.97301">
        <ele>748</ele>
        <time>2016-10-22T13:10:48Z</time>
      </trkpt>
      <trkpt lat="47.76084" lon="6.97316">
        <ele>753</ele>
        <time>2016-10-22T13:10:59Z</time>
      </trkpt>
      <trkpt lat="47.76099" lon="6.97327">
        <ele>758</ele>
        <time>2016-10-22T13:11:13Z</time>
      </trkpt>
      <trkpt lat="47.76112" lon="6.97333">
        <ele>762</ele>
        <time>2016-10-22T13:11:28Z</time>
      </trkpt>
      <trkpt lat="47.76121" lon="6.97345">
        <ele>763</ele>
        <time>2016-10-22T13:11:37Z</time>
      </trkpt>
      <trkpt lat="47.76121" lon="6.97346">
        <ele>757</ele>
        <time>2016-10-22T13:11:45Z</time>
      </trkpt>
      <trkpt lat="47.76141" lon="6.97348">
        <ele>753</ele>
        <time>2016-10-22T13:12:23Z</time>
      </trkpt>
      <trkpt lat="47.76157" lon="6.97364">
        <ele>747</ele>
        <time>2016-10-22T13:12:34Z</time>
      </trkpt>
      <trkpt lat="47.76173" lon="6.97366">
        <ele>745</ele>
        <time>2016-10-22T13:12:47Z</time>
      </trkpt>
      <trkpt lat="47.7618" lon="6.97376">
        <ele>744</ele>
        <time>2016-10-22T13:12:58Z</time>
      </trkpt>
      <trkpt lat="47.76208" lon="6.97389">
        <ele>736</ele>
        <time>2016-10-22T13:13:43Z</time>
      </trkpt>
      <trkpt lat="47.76237" lon="6.97396">
        <ele>724</ele>
        <time>2016-10-22T13:14:18Z</time>
      </trkpt>
      <trkpt lat="47.76243" lon="6.97399">
        <ele>724</ele>
        <time>2016-10-22T13:14:20Z</time>
      </trkpt>
      <trkpt lat="47.76242" lon="6.97403">
        <ele>717</ele>
        <time>2016-10-22T13:14:28Z</time>
      </trkpt>
      <trkpt lat="47.76256" lon="6.97407">
        <ele>720</ele>
        <time>2016-10-22T13:14:42Z</time>
      </trkpt>
      <trkpt lat="47.76268" lon="6.97402">
        <ele>723</ele>
        <time>2016-10-22T13:14:49Z</time>
      </trkpt>
      <trkpt lat="47.76283" lon="6.97399">
        <ele>724</ele>
        <time>2016-10-22T13:15:02Z</time>
      </trkpt>
      <trkpt lat="47.76305" lon="6.97396">
        <ele>719</ele>
        <time>2016-10-22T13:15:19Z</time>
      </trkpt>
      <trkpt lat="47.76315" lon="6.97396">
        <ele>719</ele>
        <time>2016-10-22T13:15:25Z</time>
      </trkpt>
      <trkpt lat="47.76312" lon="6.974">
        <ele>709</ele>
        <time>2016-10-22T13:15:34Z</time>
      </trkpt>
      <trkpt lat="47.76328" lon="6.9741">
        <ele>702</ele>
        <time>2016-10-22T13:16:07Z</time>
      </trkpt>
      <trkpt lat="47.76338" lon="6.97425">
        <ele>700</ele>
        <time>2016-10-22T13:16:13Z</time>
      </trkpt>
      <trkpt lat="47.76346" lon="6.97436">
        <ele>696</ele>
        <time>2016-10-22T13:16:21Z</time>
      </trkpt>
      <trkpt lat="47.76347" lon="6.97443">
        <ele>699</ele>
        <time>2016-10-22T13:16:23Z</time>
      </trkpt>
      <trkpt lat="47.76354" lon="6.97454">
        <ele>692</ele>
        <time>2016-10-22T13:16:34Z</time>
      </trkpt>
      <trkpt lat="47.76356" lon="6.97483">
        <ele>693</ele>
        <time>2016-10-22T13:16:50Z</time>
      </trkpt>
      <trkpt lat="47.76356" lon="6.97483">
        <ele>693</ele>
        <time>2016-10-22T13:16:57Z</time>
      </trkpt>
      <trkpt lat="47.76356" lon="6.97483">
        <ele>693</ele>
        <time>2016-10-22T13:16:59Z</time>
      </trkpt>
      <trkpt lat="47.76367" lon="6.97509">
        <ele>690</ele>
        <time>2016-10-22T13:17:21Z</time>
      </trkpt>
      <trkpt lat="47.76373" lon="6.97521">
        <ele>690</ele>
        <time>2016-10-22T13:17:29Z</time>
      </trkpt>
      <trkpt lat="47.76379" lon="6.97531">
        <ele>688</ele>
        <time>2016-10-22T13:17:36Z</time>
      </trkpt>
      <trkpt lat="47.76375" lon="6.97534">
        <ele>690</ele>
        <time>2016-10-22T13:17:44Z</time>
      </trkpt>
      <trkpt lat="47.76382" lon="6.97574">
        <ele>683</ele>
        <time>2016-10-22T13:18:14Z</time>
      </trkpt>
      <trkpt lat="47.76382" lon="6.97598">
        <ele>679</ele>
        <time>2016-10-22T13:18:23Z</time>
      </trkpt>
      <trkpt lat="47.76381" lon="6.97638">
        <ele>686</ele>
        <time>2016-10-22T13:18:41Z</time>
      </trkpt>
      <trkpt lat="47.76377" lon="6.97659">
        <ele>688</ele>
        <time>2016-10-22T13:18:57Z</time>
      </trkpt>
      <trkpt lat="47.76381" lon="6.97704">
        <ele>681</ele>
        <time>2016-10-22T13:19:55Z</time>
      </trkpt>
      <trkpt lat="47.76381" lon="6.97704">
        <ele>681</ele>
        <time>2016-10-22T13:20:00Z</time>
      </trkpt>
      <trkpt lat="47.76378" lon="6.97726">
        <ele>681</ele>
        <time>2016-10-22T13:20:09Z</time>
      </trkpt>
      <trkpt lat="47.76366" lon="6.97762">
        <ele>684</ele>
        <time>2016-10-22T13:20:27Z</time>
      </trkpt>
      <trkpt lat="47.76358" lon="6.97779">
        <ele>680</ele>
        <time>2016-10-22T13:20:39Z</time>
      </trkpt>
      <trkpt lat="47.76356" lon="6.97786">
        <ele>680</ele>
        <time>2016-10-22T13:20:43Z</time>
      </trkpt>
      <trkpt lat="47.7636" lon="6.97798">
        <ele>678</ele>
        <time>2016-10-22T13:20:56Z</time>
      </trkpt>
      <trkpt lat="47.7636" lon="6.97798">
        <ele>678</ele>
        <time>2016-10-22T13:21:03Z</time>
      </trkpt>
      <trkpt lat="47.7636" lon="6.97798">
        <ele>678</ele>
        <time>2016-10-22T13:21:04Z</time>
      </trkpt>
      <trkpt lat="47.76354" lon="6.97832">
        <ele>677</ele>
        <time>2016-10-22T13:21:30Z</time>
      </trkpt>
      <trkpt lat="47.76352" lon="6.97844">
        <ele>683</ele>
        <time>2016-10-22T13:21:36Z</time>
      </trkpt>
      <trkpt lat="47.7635" lon="6.97845">
        <ele>681</ele>
        <time>2016-10-22T13:21:42Z</time>
      </trkpt>
      <trkpt lat="47.7634" lon="6.97891">
        <ele>669</ele>
        <time>2016-10-22T13:22:22Z</time>
      </trkpt>
      <trkpt lat="47.76342" lon="6.97915">
        <ele>665</ele>
        <time>2016-10-22T13:22:36Z</time>
      </trkpt>
      <trkpt lat="47.76343" lon="6.97961">
        <ele>665</ele>
        <time>2016-10-22T13:23:09Z</time>
      </trkpt>
      <trkpt lat="47.76347" lon="6.97977">
        <ele>661</ele>
        <time>2016-10-22T13:23:17Z</time>
      </trkpt>
      <trkpt lat="47.76344" lon="6.98002">
        <ele>662</ele>
        <time>2016-10-22T13:23:29Z</time>
      </trkpt>
      <trkpt lat="47.76351" lon="6.98037">
        <ele>660</ele>
        <time>2016-10-22T13:23:49Z</time>
      </trkpt>
      <trkpt lat="47.76357" lon="6.98061">
        <ele>658</ele>
        <time>2016-10-22T13:24:06Z</time>
      </trkpt>
      <trkpt lat="47.76359" lon="6.98088">
        <ele>659</ele>
        <time>2016-10-22T13:24:20Z</time>
      </trkpt>
      <trkpt lat="47.76363" lon="6.98107">
        <ele>660</ele>
        <time>2016-10-22T13:24:32Z</time>
      </trkpt>
      <trkpt lat="47.76366" lon="6.98128">
        <ele>652</ele>
        <time>2016-10-22T13:24:52Z</time>
      </trkpt>
      <trkpt lat="47.7637" lon="6.98138">
        <ele>652</ele>
        <time>2016-10-22T13:24:55Z</time>
      </trkpt>
      <trkpt lat="47.7637" lon="6.98151">
        <ele>650</ele>
        <time>2016-10-22T13:25:09Z</time>
      </trkpt>
      <trkpt lat="47.76371" lon="6.98167">
        <ele>645</ele>
        <time>2016-10-22T13:25:18Z</time>
      </trkpt>
      <trkpt lat="47.7638" lon="6.98174">
        <ele>646</ele>
        <time>2016-10-22T13:25:30Z</time>
      </trkpt>
      <trkpt lat="47.76389" lon="6.98181">
        <ele>640</ele>
        <time>2016-10-22T13:25:42Z</time>
      </trkpt>
      <trkpt lat="47.76398" lon="6.98201">
        <ele>636</ele>
        <time>2016-10-22T13:25:56Z</time>
      </trkpt>
      <trkpt lat="47.76407" lon="6.98228">
        <ele>638</ele>
        <time>2016-10-22T13:26:13Z</time>
      </trkpt>
      <trkpt lat="47.76413" lon="6.98241">
        <ele>640</ele>
        <time>2016-10-22T13:26:18Z</time>
      </trkpt>
      <trkpt lat="47.76423" lon="6.98238">
        <ele>634</ele>
        <time>2016-10-22T13:26:32Z</time>
      </trkpt>
      <trkpt lat="47.76419" lon="6.9826">
        <ele>630</ele>
        <time>2016-10-22T13:26:47Z</time>
      </trkpt>
      <trkpt lat="47.76419" lon="6.98268">
        <ele>632</ele>
        <time>2016-10-22T13:26:49Z</time>
      </trkpt>
      <trkpt lat="47.76417" lon="6.98282">
        <ele>632</ele>
        <time>2016-10-22T13:27:01Z</time>
      </trkpt>
      <trkpt lat="47.76412" lon="6.98285">
        <ele>628</ele>
        <time>2016-10-22T13:27:06Z</time>
      </trkpt>
      <trkpt lat="47.7641" lon="6.98289">
        <ele>627</ele>
        <time>2016-10-22T13:27:14Z</time>
      </trkpt>
      <trkpt lat="47.76404" lon="6.9832">
        <ele>626</ele>
        <time>2016-10-22T13:28:05Z</time>
      </trkpt>
      <trkpt lat="47.76404" lon="6.9832">
        <ele>626</ele>
        <time>2016-10-22T13:28:12Z</time>
      </trkpt>
      <trkpt lat="47.76404" lon="6.9832">
        <ele>626</ele>
        <time>2016-10-22T13:28:13Z</time>
      </trkpt>
      <trkpt lat="47.76393" lon="6.98341">
        <ele>616</ele>
        <time>2016-10-22T13:28:29Z</time>
      </trkpt>
      <trkpt lat="47.76408" lon="6.98345">
        <ele>616</ele>
        <time>2016-10-22T13:28:40Z</time>
      </trkpt>
      <trkpt lat="47.76416" lon="6.9835">
        <ele>612</ele>
        <time>2016-10-22T13:28:52Z</time>
      </trkpt>
      <trkpt lat="47.76422" lon="6.98369">
        <ele>608</ele>
        <time>2016-10-22T13:29:12Z</time>
      </trkpt>
      <trkpt lat="47.76413" lon="6.98384">
        <ele>610</ele>
        <time>2016-10-22T13:29:20Z</time>
      </trkpt>
      <trkpt lat="47.76404" lon="6.98394">
        <ele>610</ele>
        <time>2016-10-22T13:29:30Z</time>
      </trkpt>
      <trkpt lat="47.76395" lon="6.98405">
        <ele>606</ele>
        <time>2016-10-22T13:29:43Z</time>
      </trkpt>
      <trkpt lat="47.76397" lon="6.98408">
        <ele>606</ele>
        <time>2016-10-22T13:29:51Z</time>
      </trkpt>
      <trkpt lat="47.76419" lon="6.98412">
        <ele>608</ele>
        <time>2016-10-22T13:30:11Z</time>
      </trkpt>
      <trkpt lat="47.7643" lon="6.98417">
        <ele>608</ele>
        <time>2016-10-22T13:30:18Z</time>
      </trkpt>
      <trkpt lat="47.76432" lon="6.98418">
        <ele>608</ele>
        <time>2016-10-22T13:30:19Z</time>
      </trkpt>
      <trkpt lat="47.7643" lon="6.98417">
        <ele>608</ele>
        <time>2016-10-22T13:30:27Z</time>
      </trkpt>
      <trkpt lat="47.76412" lon="6.98425">
        <ele>598</ele>
        <time>2016-10-22T13:30:33Z</time>
      </trkpt>
      <trkpt lat="47.76399" lon="6.98444">
        <ele>596</ele>
        <time>2016-10-22T13:30:40Z</time>
      </trkpt>
      <trkpt lat="47.76401" lon="6.98448">
        <ele>595</ele>
        <time>2016-10-22T13:30:46Z</time>
      </trkpt>
      <trkpt lat="47.76432" lon="6.98437">
        <ele>590</ele>
        <time>2016-10-22T13:31:39Z</time>
      </trkpt>
      <trkpt lat="47.76432" lon="6.98437">
        <ele>590</ele>
        <time>2016-10-22T13:31:46Z</time>
      </trkpt>
      <trkpt lat="47.76456" lon="6.98423">
        <ele>586</ele>
        <time>2016-10-22T13:31:57Z</time>
      </trkpt>
      <trkpt lat="47.76466" lon="6.98418">
        <ele>584</ele>
        <time>2016-10-22T13:32:03Z</time>
      </trkpt>
      <trkpt lat="47.7648" lon="6.98409">
        <ele>578</ele>
        <time>2016-10-22T13:32:12Z</time>
      </trkpt>
      <trkpt lat="47.76494" lon="6.98403">
        <ele>580</ele>
        <time>2016-10-22T13:32:19Z</time>
      </trkpt>
      <trkpt lat="47.76496" lon="6.98404">
        <ele>581</ele>
        <time>2016-10-22T13:32:25Z</time>
      </trkpt>
      <trkpt lat="47.76516" lon="6.98393">
        <ele>580</ele>
        <time>2016-10-22T13:32:40Z</time>
      </trkpt>
      <trkpt lat="47.76528" lon="6.9839">
        <ele>580</ele>
        <time>2016-10-22T13:32:47Z</time>
      </trkpt>
      <trkpt lat="47.76546" lon="6.98378">
        <ele>580</ele>
        <time>2016-10-22T13:33:02Z</time>
      </trkpt>
      <trkpt lat="47.76558" lon="6.98369">
        <ele>577</ele>
        <time>2016-10-22T13:33:11Z</time>
      </trkpt>
      <trkpt lat="47.76564" lon="6.98358">
        <ele>571</ele>
        <time>2016-10-22T13:33:24Z</time>
      </trkpt>
      <trkpt lat="47.76578" lon="6.98348">
        <ele>571</ele>
        <time>2016-10-22T13:33:40Z</time>
      </trkpt>
      <trkpt lat="47.76602" lon="6.98348">
        <ele>569</ele>
        <time>2016-10-22T13:33:58Z</time>
      </trkpt>
      <trkpt lat="47.76623" lon="6.98348">
        <ele>566</ele>
        <time>2016-10-22T13:34:14Z</time>
      </trkpt>
      <trkpt lat="47.76636" lon="6.98342">
        <ele>567</ele>
        <time>2016-10-22T13:34:29Z</time>
      </trkpt>
      <trkpt lat="47.76655" lon="6.98337">
        <ele>564</ele>
        <time>2016-10-22T13:34:44Z</time>
      </trkpt>
      <trkpt lat="47.76655" lon="6.98337">
        <ele>564</ele>
        <time>2016-10-22T13:34:50Z</time>
      </trkpt>
      <trkpt lat="47.76655" lon="6.98337">
        <ele>564</ele>
        <time>2016-10-22T13:34:51Z</time>
      </trkpt>
      <trkpt lat="47.76668" lon="6.98336">
        <ele>561</ele>
        <time>2016-10-22T13:35:15Z</time>
      </trkpt>
      <trkpt lat="47.76689" lon="6.98328">
        <ele>559</ele>
        <time>2016-10-22T13:35:27Z</time>
      </trkpt>
      <trkpt lat="47.76703" lon="6.98324">
        <ele>558</ele>
        <time>2016-10-22T13:35:38Z</time>
      </trkpt>
      <trkpt lat="47.76719" lon="6.98319">
        <ele>555</ele>
        <time>2016-10-22T13:35:52Z</time>
      </trkpt>
      <trkpt lat="47.76731" lon="6.98305">
        <ele>547</ele>
        <time>2016-10-22T13:36:04Z</time>
      </trkpt>
      <trkpt lat="47.76743" lon="6.98303">
        <ele>545</ele>
        <time>2016-10-22T13:36:11Z</time>
      </trkpt>
      <trkpt lat="47.76743" lon="6.98303">
        <ele>545</ele>
        <time>2016-10-22T13:36:17Z</time>
      </trkpt>
      <trkpt lat="47.76743" lon="6.98303">
        <ele>545</ele>
        <time>2016-10-22T13:36:18Z</time>
      </trkpt>
      <trkpt lat="47.76761" lon="6.983">
        <ele>540</ele>
        <time>2016-10-22T13:36:47Z</time>
      </trkpt>
      <trkpt lat="47.76782" lon="6.98293">
        <ele>543</ele>
        <time>2016-10-22T13:36:59Z</time>
      </trkpt>
      <trkpt lat="47.76848" lon="6.98256">
        <ele>534</ele>
        <time>2016-10-22T13:38:19Z</time>
      </trkpt>
      <trkpt lat="47.76863" lon="6.98253">
        <ele>524</ele>
        <time>2016-10-22T13:38:34Z</time>
      </trkpt>
      <trkpt lat="47.76883" lon="6.98248">
        <ele>518</ele>
        <time>2016-10-22T13:38:50Z</time>
      </trkpt>
      <trkpt lat="47.76895" lon="6.98244">
        <ele>517</ele>
        <time>2016-10-22T13:38:58Z</time>
      </trkpt>
      <trkpt lat="47.7691" lon="6.98229">
        <ele>516</ele>
        <time>2016-10-22T13:39:12Z</time>
      </trkpt>
      <trkpt lat="47.7692" lon="6.98213">
        <ele>520</ele>
        <time>2016-10-22T13:39:24Z</time>
      </trkpt>
      <trkpt lat="47.76933" lon="6.98198">
        <ele>517</ele>
        <time>2016-10-22T13:39:39Z</time>
      </trkpt>
      <trkpt lat="47.76951" lon="6.9819">
        <ele>520</ele>
        <time>2016-10-22T13:39:54Z</time>
      </trkpt>
      <trkpt lat="47.76957" lon="6.98194">
        <ele>516</ele>
        <time>2016-10-22T13:40:01Z</time>
      </trkpt>
      <trkpt lat="47.76964" lon="6.98204">
        <ele>514</ele>
        <time>2016-10-22T13:40:07Z</time>
      </trkpt>
      <trkpt lat="47.76975" lon="6.98216">
        <ele>513</ele>
        <time>2016-10-22T13:40:19Z</time>
      </trkpt>
      <trkpt lat="47.7699" lon="6.98233">
        <ele>511</ele>
        <time>2016-10-22T13:40:34Z</time>
      </trkpt>
      <trkpt lat="47.77001" lon="6.98252">
        <ele>510</ele>
        <time>2016-10-22T13:40:48Z</time>
      </trkpt>
      <trkpt lat="47.77015" lon="6.9828">
        <ele>511</ele>
        <time>2016-10-22T13:41:09Z</time>
      </trkpt>
      <trkpt lat="47.77023" lon="6.98301">
        <ele>510</ele>
        <time>2016-10-22T13:41:21Z</time>
      </trkpt>
      <trkpt lat="47.77031" lon="6.98325">
        <ele>506</ele>
        <time>2016-10-22T13:41:36Z</time>
      </trkpt>
      <trkpt lat="47.7704" lon="6.98343">
        <ele>503</ele>
        <time>2016-10-22T13:41:48Z</time>
      </trkpt>
      <trkpt lat="47.77047" lon="6.98371">
        <ele>499</ele>
        <time>2016-10-22T13:42:06Z</time>
      </trkpt>
      <trkpt lat="47.77062" lon="6.98394">
        <ele>502</ele>
        <time>2016-10-22T13:42:21Z</time>
      </trkpt>
      <trkpt lat="47.77072" lon="6.98411">
        <ele>499</ele>
        <time>2016-10-22T13:42:33Z</time>
      </trkpt>
      <trkpt lat="47.77082" lon="6.98442">
        <ele>494</ele>
        <time>2016-10-22T13:42:52Z</time>
      </trkpt>
      <trkpt lat="47.77101" lon="6.98437">
        <ele>497</ele>
        <time>2016-10-22T13:43:10Z</time>
      </trkpt>
      <trkpt lat="47.77113" lon="6.98424">
        <ele>498</ele>
        <time>2016-10-22T13:43:21Z</time>
      </trkpt>
      <trkpt lat="47.77118" lon="6.98403">
        <ele>496</ele>
        <time>2016-10-22T13:43:34Z</time>
      </trkpt>
      <trkpt lat="47.7712" lon="6.98387">
        <ele>494</ele>
        <time>2016-10-22T13:43:46Z</time>
      </trkpt>
      <trkpt lat="47.77118" lon="6.9836">
        <ele>496</ele>
        <time>2016-10-22T13:44:02Z</time>
      </trkpt>
      <trkpt lat="47.77117" lon="6.98346">
        <ele>494</ele>
        <time>2016-10-22T13:44:11Z</time>
      </trkpt>
      <trkpt lat="47.77122" lon="6.9832">
        <ele>492</ele>
        <time>2016-10-22T13:44:26Z</time>
      </trkpt>
      <trkpt lat="47.77125" lon="6.98299">
        <ele>490</ele>
        <time>2016-10-22T13:44:38Z</time>
      </trkpt>
      <trkpt lat="47.77134" lon="6.98276">
        <ele>492</ele>
        <time>2016-10-22T13:44:56Z</time>
      </trkpt>
      <trkpt lat="47.77155" lon="6.98283">
        <ele>493</ele>
        <time>2016-10-22T13:45:16Z</time>
      </trkpt>
      <trkpt lat="47.77183" lon="6.98295">
        <ele>498</ele>
        <time>2016-10-22T13:45:33Z</time>
      </trkpt>
      <trkpt lat="47.77195" lon="6.98302">
        <ele>500</ele>
        <time>2016-10-22T13:45:39Z</time>
      </trkpt>
      <trkpt lat="47.77195" lon="6.98298">
        <ele>502</ele>
        <time>2016-10-22T13:45:47Z</time>
      </trkpt>
      <trkpt lat="47.77221" lon="6.98316">
        <ele>498</ele>
        <time>2016-10-22T13:46:21Z</time>
      </trkpt>
      <trkpt lat="47.77238" lon="6.98325">
        <ele>501</ele>
        <time>2016-10-22T13:46:37Z</time>
      </trkpt>
      <trkpt lat="47.77253" lon="6.98342">
        <ele>494</ele>
        <time>2016-10-22T13:46:44Z</time>
      </trkpt>
      <trkpt lat="47.77268" lon="6.98352">
        <ele>489</ele>
        <time>2016-10-22T13:46:52Z</time>
      </trkpt>
      <trkpt lat="47.77277" lon="6.98357">
        <ele>491</ele>
        <time>2016-10-22T13:46:59Z</time>
      </trkpt>
      <trkpt lat="47.77279" lon="6.98356">
        <ele>491</ele>
        <time>2016-10-22T13:47:06Z</time>
      </trkpt>
      <trkpt lat="47.77303" lon="6.98367">
        <ele>491</ele>
        <time>2016-10-22T13:47:29Z</time>
      </trkpt>
      <trkpt lat="47.77314" lon="6.98375">
        <ele>494</ele>
        <time>2016-10-22T13:47:36Z</time>
      </trkpt>
      <trkpt lat="47.77328" lon="6.98395">
        <ele>490</ele>
        <time>2016-10-22T13:47:48Z</time>
      </trkpt>
      <trkpt lat="47.77333" lon="6.98398">
        <ele>491</ele>
        <time>2016-10-22T13:47:51Z</time>
      </trkpt>
      <trkpt lat="47.77328" lon="6.98395">
        <ele>490</ele>
        <time>2016-10-22T13:48:00Z</time>
      </trkpt>
      <trkpt lat="47.77345" lon="6.98399">
        <ele>492</ele>
        <time>2016-10-22T13:48:29Z</time>
      </trkpt>
      <trkpt lat="47.77366" lon="6.98402">
        <ele>494</ele>
        <time>2016-10-22T13:48:44Z</time>
      </trkpt>
      <trkpt lat="47.77366" lon="6.98402">
        <ele>494</ele>
        <time>2016-10-22T13:48:51Z</time>
      </trkpt>
      <trkpt lat="47.77366" lon="6.98402">
        <ele>494</ele>
        <time>2016-10-22T13:48:52Z</time>
      </trkpt>
      <trkpt lat="47.77379" lon="6.98408">
        <ele>480</ele>
        <time>2016-10-22T13:49:08Z</time>
      </trkpt>
      <trkpt lat="47.77389" lon="6.98422">
        <ele>475</ele>
        <time>2016-10-22T13:49:19Z</time>
      </trkpt>
      <trkpt lat="47.77398" lon="6.98442">
        <ele>475</ele>
        <time>2016-10-22T13:49:30Z</time>
      </trkpt>
      <trkpt lat="47.77401" lon="6.98465">
        <ele>476</ele>
        <time>2016-10-22T13:49:43Z</time>
      </trkpt>
      <trkpt lat="47.7741" lon="6.98494">
        <ele>472</ele>
        <time>2016-10-22T13:49:58Z</time>
      </trkpt>
      <trkpt lat="47.77416" lon="6.98515">
        <ele>470</ele>
        <time>2016-10-22T13:50:12Z</time>
      </trkpt>
      <trkpt lat="47.7743" lon="6.98532">
        <ele>471</ele>
        <time>2016-10-22T13:50:28Z</time>
      </trkpt>
      <trkpt lat="47.77447" lon="6.98537">
        <ele>471</ele>
        <time>2016-10-22T13:50:39Z</time>
      </trkpt>
      <trkpt lat="47.77452" lon="6.98541">
        <ele>468</ele>
        <time>2016-10-22T13:50:47Z</time>
      </trkpt>
      <trkpt lat="47.77466" lon="6.98561">
        <ele>467</ele>
        <time>2016-10-22T13:51:04Z</time>
      </trkpt>
      <trkpt lat="47.77466" lon="6.98561">
        <ele>467</ele>
        <time>2016-10-22T13:51:11Z</time>
      </trkpt>
      <trkpt lat="47.77466" lon="6.98561">
        <ele>467</ele>
        <time>2016-10-22T13:51:12Z</time>
      </trkpt>
      <trkpt lat="47.77476" lon="6.98589">
        <ele>475</ele>
        <time>2016-10-22T13:55:24Z</time>
      </trkpt>
      <trkpt lat="47.77481" lon="6.986">
        <ele>473</ele>
        <time>2016-10-22T13:55:34Z</time>
      </trkpt>
      <trkpt lat="47.7748" lon="6.98598">
        <ele>472</ele>
        <time>2016-10-22T13:55:42Z</time>
      </trkpt>
      <trkpt lat="47.77476" lon="6.9858">
        <ele>475</ele>
        <time>2016-10-22T13:57:42Z</time>
      </trkpt>
      <trkpt lat="47.77469" lon="6.9857">
        <ele>473</ele>
        <time>2016-10-22T13:57:53Z</time>
      </trkpt>
      <trkpt lat="47.77467" lon="6.98569">
        <ele>473</ele>
        <time>2016-10-22T13:58:02Z</time>
      </trkpt>
      <trkpt lat="47.77467" lon="6.98569">
        <ele>422</ele>
        <time>2016-10-22T14:01:57Z</time>
      </trkpt>
      <trkpt lat="47.77467" lon="6.98569">
        <ele>422</ele>
        <time>2016-10-22T14:06:14Z</time>
      </trkpt>
      <trkpt lat="47.77462" lon="6.98574">
        <ele>472</ele>
        <time>2016-10-22T14:06:15Z</time>
      </trkpt>
      <trkpt lat="47.77474" lon="6.98595">
        <ele>466</ele>
        <time>2016-10-22T14:07:34Z</time>
      </trkpt>
      <trkpt lat="47.77481" lon="6.98613">
        <ele>468</ele>
        <time>2016-10-22T14:07:41Z</time>
      </trkpt>
      <trkpt lat="47.7749" lon="6.98641">
        <ele>472</ele>
        <time>2016-10-22T14:07:53Z</time>
      </trkpt>
      <trkpt lat="47.77488" lon="6.98658">
        <ele>469</ele>
        <time>2016-10-22T14:08:03Z</time>
      </trkpt>
      <trkpt lat="47.7748" lon="6.98687">
        <ele>469</ele>
        <time>2016-10-22T14:08:18Z</time>
      </trkpt>
      <trkpt lat="47.77474" lon="6.98708">
        <ele>469</ele>
        <time>2016-10-22T14:08:31Z</time>
      </trkpt>
      <trkpt lat="47.77466" lon="6.98728">
        <ele>468</ele>
        <time>2016-10-22T14:08:43Z</time>
      </trkpt>
      <trkpt lat="47.77454" lon="6.98752">
        <ele>469</ele>
        <time>2016-10-22T14:08:58Z</time>
      </trkpt>
      <trkpt lat="47.77445" lon="6.98769">
        <ele>467</ele>
        <time>2016-10-22T14:09:12Z</time>
      </trkpt>
      <trkpt lat="47.77434" lon="6.98794">
        <ele>467</ele>
        <time>2016-10-22T14:09:27Z</time>
      </trkpt>
      <trkpt lat="47.77426" lon="6.98812">
        <ele>466</ele>
        <time>2016-10-22T14:09:39Z</time>
      </trkpt>
      <trkpt lat="47.77426" lon="6.98812">
        <ele>466</ele>
        <time>2016-10-22T14:09:44Z</time>
      </trkpt>
      <trkpt lat="47.77424" lon="6.98825">
        <ele>465</ele>
        <time>2016-10-22T14:09:48Z</time>
      </trkpt>
      <trkpt lat="47.77417" lon="6.98848">
        <ele>465</ele>
        <time>2016-10-22T14:10:02Z</time>
      </trkpt>
      <trkpt lat="47.77419" lon="6.9888">
        <ele>463</ele>
        <time>2016-10-22T14:10:19Z</time>
      </trkpt>
      <trkpt lat="47.77432" lon="6.98891">
        <ele>464</ele>
        <time>2016-10-22T14:10:30Z</time>
      </trkpt>
      <trkpt lat="47.77445" lon="6.98902">
        <ele>464</ele>
        <time>2016-10-22T14:10:42Z</time>
      </trkpt>
      <trkpt lat="47.77462" lon="6.98913">
        <ele>468</ele>
        <time>2016-10-22T14:10:56Z</time>
      </trkpt>
      <trkpt lat="47.77479" lon="6.98928">
        <ele>467</ele>
        <time>2016-10-22T14:11:12Z</time>
      </trkpt>
      <trkpt lat="47.77491" lon="6.98936">
        <ele>469</ele>
        <time>2016-10-22T14:11:22Z</time>
      </trkpt>
      <trkpt lat="47.77508" lon="6.98952">
        <ele>467</ele>
        <time>2016-10-22T14:11:38Z</time>
      </trkpt>
      <trkpt lat="47.77532" lon="6.9897">
        <ele>469</ele>
        <time>2016-10-22T14:11:58Z</time>
      </trkpt>
      <trkpt lat="47.77551" lon="6.98984">
        <ele>470</ele>
        <time>2016-10-22T14:12:14Z</time>
      </trkpt>
      <trkpt lat="47.77558" lon="6.98991">
        <ele>470</ele>
        <time>2016-10-22T14:12:22Z</time>
      </trkpt>
      <trkpt lat="47.77576" lon="6.99005">
        <ele>463</ele>
        <time>2016-10-22T14:12:40Z</time>
      </trkpt>
      <trkpt lat="47.77596" lon="6.99044">
        <ele>466</ele>
        <time>2016-10-22T14:13:00Z</time>
      </trkpt>
      <trkpt lat="47.77587" lon="6.9907">
        <ele>464</ele>
        <time>2016-10-22T14:13:14Z</time>
      </trkpt>
      <trkpt lat="47.77578" lon="6.9909">
        <ele>465</ele>
        <time>2016-10-22T14:13:26Z</time>
      </trkpt>
      <trkpt lat="47.77578" lon="6.99116">
        <ele>464</ele>
        <time>2016-10-22T14:13:40Z</time>
      </trkpt>
      <trkpt lat="47.77581" lon="6.99141">
        <ele>460</ele>
        <time>2016-10-22T14:13:57Z</time>
      </trkpt>
      <trkpt lat="47.77584" lon="6.99147">
        <ele>461</ele>
        <time>2016-10-22T14:14:02Z</time>
      </trkpt>
      <trkpt lat="47.77587" lon="6.99149">
        <ele>462</ele>
        <time>2016-10-22T14:14:10Z</time>
      </trkpt>
      <trkpt lat="47.77587" lon="6.99149">
        <ele>410</ele>
        <time>2016-10-22T14:15:38Z</time>
      </trkpt>
      <trkpt lat="47.77587" lon="6.99149">
        <ele>410</ele>
        <time>2016-10-22T14:15:45Z</time>
      </trkpt>
    </trkseg>
  </trk>
</gpx>